<?xml version="1.0" encoding="UTF-8" standalone="no" ?>
<gpx xmlns="http://www.topografix.com/GPX/1/1" xmlns:xsi="http://www.w3.org/2001/XMLSchema-instance" xsi:schemaLocation="http://www.topografix.com/GPX/1/1 http://www.topografix.com/GPX/1/1/gpx.xsd" version="1.1" creator="VisuGPX - https://www.visugpx.com">
  <metadata>
    <name>46-Goujounac-19/06/2017</name>
    <desc><![CDATA[C’est un très beau circuit que nous a proposé Gisèle. Les sous-bois ont été très appréciés, non seulement pour l’ombre protectrice, mais aussi pour la beauté des lieux.
27 montapattes ont parcouru ce circuit d’environ 12km, là encore nous avons découvert de jolis paysages et quelques coteaux de vignes, et même pour Christian quelques cèpes et girolles. ]]></desc>
  </metadata>
  <trk>
    <name><![CDATA[OR-7489375--Goujounac:Gisou]]></name>
    <trkseg>
      <trkpt lat="44.57714" lon="1.19573">
        <ele>229</ele>
        <time>2017-06-05T11:36:54Z</time>
      </trkpt>
      <trkpt lat="44.57709" lon="1.19585">
        <ele>227</ele>
        <time>2017-06-05T11:38:54Z</time>
      </trkpt>
      <trkpt lat="44.57702" lon="1.19594">
        <ele>226</ele>
        <time>2017-06-05T11:40:54Z</time>
      </trkpt>
      <trkpt lat="44.57706" lon="1.19606">
        <ele>226</ele>
        <time>2017-06-05T11:42:54Z</time>
      </trkpt>
      <trkpt lat="44.57711" lon="1.19617">
        <ele>225</ele>
        <time>2017-06-05T11:44:54Z</time>
      </trkpt>
      <trkpt lat="44.57717" lon="1.19628">
        <ele>224</ele>
        <time>2017-06-05T11:46:54Z</time>
      </trkpt>
      <trkpt lat="44.57723" lon="1.19637">
        <ele>223</ele>
        <time>2017-06-05T11:48:54Z</time>
      </trkpt>
      <trkpt lat="44.57729" lon="1.19649">
        <ele>222</ele>
        <time>2017-06-05T11:50:54Z</time>
      </trkpt>
      <trkpt lat="44.57734" lon="1.1966">
        <ele>221</ele>
        <time>2017-06-05T11:52:54Z</time>
      </trkpt>
      <trkpt lat="44.57739" lon="1.19672">
        <ele>220</ele>
        <time>2017-06-05T11:54:54Z</time>
      </trkpt>
      <trkpt lat="44.57743" lon="1.19684">
        <ele>220</ele>
        <time>2017-06-05T11:56:54Z</time>
      </trkpt>
      <trkpt lat="44.5775" lon="1.19694">
        <ele>219</ele>
        <time>2017-06-05T11:58:54Z</time>
      </trkpt>
      <trkpt lat="44.57756" lon="1.19703">
        <ele>219</ele>
        <time>2017-06-05T12:00:54Z</time>
      </trkpt>
      <trkpt lat="44.5776" lon="1.19715">
        <ele>219</ele>
        <time>2017-06-05T12:02:54Z</time>
      </trkpt>
      <trkpt lat="44.57768" lon="1.19723">
        <ele>219</ele>
        <time>2017-06-05T12:04:54Z</time>
      </trkpt>
      <trkpt lat="44.57773" lon="1.19735">
        <ele>218</ele>
        <time>2017-06-05T12:06:54Z</time>
      </trkpt>
      <trkpt lat="44.57783" lon="1.19736">
        <ele>218</ele>
        <time>2017-06-05T12:08:54Z</time>
      </trkpt>
      <trkpt lat="44.5779" lon="1.19726">
        <ele>218</ele>
        <time>2017-06-05T12:10:54Z</time>
      </trkpt>
      <trkpt lat="44.57796" lon="1.19715">
        <ele>219</ele>
        <time>2017-06-05T12:12:54Z</time>
      </trkpt>
      <trkpt lat="44.57805" lon="1.1971">
        <ele>219</ele>
        <time>2017-06-05T12:14:54Z</time>
      </trkpt>
      <trkpt lat="44.57809" lon="1.19699">
        <ele>219</ele>
        <time>2017-06-05T12:16:54Z</time>
      </trkpt>
      <trkpt lat="44.57816" lon="1.19688">
        <ele>220</ele>
        <time>2017-06-05T12:18:54Z</time>
      </trkpt>
      <trkpt lat="44.57822" lon="1.19678">
        <ele>220</ele>
        <time>2017-06-05T12:20:54Z</time>
      </trkpt>
      <trkpt lat="44.57825" lon="1.19666">
        <ele>221</ele>
        <time>2017-06-05T12:22:54Z</time>
      </trkpt>
      <trkpt lat="44.57842" lon="1.19634">
        <ele>224</ele>
        <time>2017-06-05T12:24:54Z</time>
      </trkpt>
      <trkpt lat="44.57849" lon="1.19625">
        <ele>225</ele>
        <time>2017-06-05T12:26:54Z</time>
      </trkpt>
      <trkpt lat="44.57854" lon="1.19614">
        <ele>226</ele>
        <time>2017-06-05T12:28:54Z</time>
      </trkpt>
      <trkpt lat="44.57867" lon="1.19594">
        <ele>228</ele>
        <time>2017-06-05T12:30:54Z</time>
      </trkpt>
      <trkpt lat="44.57873" lon="1.19583">
        <ele>228</ele>
        <time>2017-06-05T12:32:54Z</time>
      </trkpt>
      <trkpt lat="44.5788" lon="1.19574">
        <ele>229</ele>
        <time>2017-06-05T12:34:54Z</time>
      </trkpt>
      <trkpt lat="44.57905" lon="1.19534">
        <ele>232</ele>
        <time>2017-06-05T12:36:54Z</time>
      </trkpt>
      <trkpt lat="44.57912" lon="1.19524">
        <ele>232</ele>
        <time>2017-06-05T12:38:54Z</time>
      </trkpt>
      <trkpt lat="44.5792" lon="1.19516">
        <ele>233</ele>
        <time>2017-06-05T12:40:54Z</time>
      </trkpt>
      <trkpt lat="44.57927" lon="1.19507">
        <ele>234</ele>
        <time>2017-06-05T12:42:54Z</time>
      </trkpt>
      <trkpt lat="44.57939" lon="1.19488">
        <ele>236</ele>
        <time>2017-06-05T12:44:54Z</time>
      </trkpt>
      <trkpt lat="44.57952" lon="1.19469">
        <ele>237</ele>
        <time>2017-06-05T12:46:54Z</time>
      </trkpt>
      <trkpt lat="44.57958" lon="1.1946">
        <ele>238</ele>
        <time>2017-06-05T12:48:54Z</time>
      </trkpt>
      <trkpt lat="44.57965" lon="1.1945">
        <ele>239</ele>
        <time>2017-06-05T12:50:54Z</time>
      </trkpt>
      <trkpt lat="44.57971" lon="1.1944">
        <ele>239</ele>
        <time>2017-06-05T12:52:54Z</time>
      </trkpt>
      <trkpt lat="44.57985" lon="1.19422">
        <ele>240</ele>
        <time>2017-06-05T12:54:54Z</time>
      </trkpt>
      <trkpt lat="44.57992" lon="1.19414">
        <ele>240</ele>
        <time>2017-06-05T12:56:54Z</time>
      </trkpt>
      <trkpt lat="44.57999" lon="1.19406">
        <ele>241</ele>
        <time>2017-06-05T12:58:54Z</time>
      </trkpt>
      <trkpt lat="44.58002" lon="1.19393">
        <ele>243</ele>
        <time>2017-06-05T13:00:54Z</time>
      </trkpt>
      <trkpt lat="44.58006" lon="1.1938">
        <ele>244</ele>
        <time>2017-06-05T13:02:54Z</time>
      </trkpt>
      <trkpt lat="44.58014" lon="1.19374">
        <ele>245</ele>
        <time>2017-06-05T13:04:54Z</time>
      </trkpt>
      <trkpt lat="44.58021" lon="1.19365">
        <ele>246</ele>
        <time>2017-06-05T13:06:54Z</time>
      </trkpt>
      <trkpt lat="44.58026" lon="1.19353">
        <ele>247</ele>
        <time>2017-06-05T13:08:54Z</time>
      </trkpt>
      <trkpt lat="44.58032" lon="1.19344">
        <ele>248</ele>
        <time>2017-06-05T13:10:54Z</time>
      </trkpt>
      <trkpt lat="44.58038" lon="1.19333">
        <ele>249</ele>
        <time>2017-06-05T13:12:54Z</time>
      </trkpt>
      <trkpt lat="44.58045" lon="1.19324">
        <ele>250</ele>
        <time>2017-06-05T13:14:54Z</time>
      </trkpt>
      <trkpt lat="44.58049" lon="1.19312">
        <ele>251</ele>
        <time>2017-06-05T13:16:54Z</time>
      </trkpt>
      <trkpt lat="44.58053" lon="1.193">
        <ele>252</ele>
        <time>2017-06-05T13:18:54Z</time>
      </trkpt>
      <trkpt lat="44.58054" lon="1.19273">
        <ele>254</ele>
        <time>2017-06-05T13:20:54Z</time>
      </trkpt>
      <trkpt lat="44.58054" lon="1.1926">
        <ele>255</ele>
        <time>2017-06-05T13:22:54Z</time>
      </trkpt>
      <trkpt lat="44.58054" lon="1.19247">
        <ele>256</ele>
        <time>2017-06-05T13:24:54Z</time>
      </trkpt>
      <trkpt lat="44.58056" lon="1.19234">
        <ele>257</ele>
        <time>2017-06-05T13:26:54Z</time>
      </trkpt>
      <trkpt lat="44.58056" lon="1.1922">
        <ele>258</ele>
        <time>2017-06-05T13:28:54Z</time>
      </trkpt>
      <trkpt lat="44.58058" lon="1.19208">
        <ele>259</ele>
        <time>2017-06-05T13:30:54Z</time>
      </trkpt>
      <trkpt lat="44.58059" lon="1.19194">
        <ele>260</ele>
        <time>2017-06-05T13:32:54Z</time>
      </trkpt>
      <trkpt lat="44.58057" lon="1.1918">
        <ele>261</ele>
        <time>2017-06-05T13:34:54Z</time>
      </trkpt>
      <trkpt lat="44.58059" lon="1.19166">
        <ele>262</ele>
        <time>2017-06-05T13:36:54Z</time>
      </trkpt>
      <trkpt lat="44.58059" lon="1.19139">
        <ele>264</ele>
        <time>2017-06-05T13:38:54Z</time>
      </trkpt>
      <trkpt lat="44.58056" lon="1.19125">
        <ele>264</ele>
        <time>2017-06-05T13:40:54Z</time>
      </trkpt>
      <trkpt lat="44.58057" lon="1.19112">
        <ele>265</ele>
        <time>2017-06-05T13:42:54Z</time>
      </trkpt>
      <trkpt lat="44.58059" lon="1.19099">
        <ele>265</ele>
        <time>2017-06-05T13:44:54Z</time>
      </trkpt>
      <trkpt lat="44.58059" lon="1.19086">
        <ele>266</ele>
        <time>2017-06-05T13:46:54Z</time>
      </trkpt>
      <trkpt lat="44.58054" lon="1.19044">
        <ele>267</ele>
        <time>2017-06-05T13:48:54Z</time>
      </trkpt>
      <trkpt lat="44.58053" lon="1.19032">
        <ele>267</ele>
        <time>2017-06-05T13:50:54Z</time>
      </trkpt>
      <trkpt lat="44.58051" lon="1.19018">
        <ele>267</ele>
        <time>2017-06-05T13:52:54Z</time>
      </trkpt>
      <trkpt lat="44.58049" lon="1.19006">
        <ele>267</ele>
        <time>2017-06-05T13:54:54Z</time>
      </trkpt>
      <trkpt lat="44.58045" lon="1.18993">
        <ele>266</ele>
        <time>2017-06-05T13:56:54Z</time>
      </trkpt>
      <trkpt lat="44.58047" lon="1.18979">
        <ele>266</ele>
        <time>2017-06-05T13:58:54Z</time>
      </trkpt>
      <trkpt lat="44.58052" lon="1.18969">
        <ele>265</ele>
        <time>2017-06-05T14:00:54Z</time>
      </trkpt>
      <trkpt lat="44.58059" lon="1.18959">
        <ele>265</ele>
        <time>2017-06-05T14:02:54Z</time>
      </trkpt>
      <trkpt lat="44.58065" lon="1.18948">
        <ele>265</ele>
        <time>2017-06-05T14:04:54Z</time>
      </trkpt>
      <trkpt lat="44.58072" lon="1.18924">
        <ele>264</ele>
        <time>2017-06-05T14:06:54Z</time>
      </trkpt>
      <trkpt lat="44.58084" lon="1.18903">
        <ele>264</ele>
        <time>2017-06-05T14:08:54Z</time>
      </trkpt>
      <trkpt lat="44.58091" lon="1.18893">
        <ele>263</ele>
        <time>2017-06-05T14:10:54Z</time>
      </trkpt>
      <trkpt lat="44.58095" lon="1.18882">
        <ele>262</ele>
        <time>2017-06-05T14:12:54Z</time>
      </trkpt>
      <trkpt lat="44.58101" lon="1.18871">
        <ele>261</ele>
        <time>2017-06-05T14:14:54Z</time>
      </trkpt>
      <trkpt lat="44.58105" lon="1.18858">
        <ele>260</ele>
        <time>2017-06-05T14:16:54Z</time>
      </trkpt>
      <trkpt lat="44.58108" lon="1.18845">
        <ele>259</ele>
        <time>2017-06-05T14:18:54Z</time>
      </trkpt>
      <trkpt lat="44.58113" lon="1.18833">
        <ele>258</ele>
        <time>2017-06-05T14:20:54Z</time>
      </trkpt>
      <trkpt lat="44.58115" lon="1.1882">
        <ele>257</ele>
        <time>2017-06-05T14:22:54Z</time>
      </trkpt>
      <trkpt lat="44.58119" lon="1.18807">
        <ele>256</ele>
        <time>2017-06-05T14:24:54Z</time>
      </trkpt>
      <trkpt lat="44.58125" lon="1.18798">
        <ele>255</ele>
        <time>2017-06-05T14:26:54Z</time>
      </trkpt>
      <trkpt lat="44.58132" lon="1.18787">
        <ele>255</ele>
        <time>2017-06-05T14:28:54Z</time>
      </trkpt>
      <trkpt lat="44.58136" lon="1.18775">
        <ele>253</ele>
        <time>2017-06-05T14:30:54Z</time>
      </trkpt>
      <trkpt lat="44.5814" lon="1.18763">
        <ele>252</ele>
        <time>2017-06-05T14:32:54Z</time>
      </trkpt>
      <trkpt lat="44.58153" lon="1.18741">
        <ele>251</ele>
        <time>2017-06-05T14:34:54Z</time>
      </trkpt>
      <trkpt lat="44.58161" lon="1.18732">
        <ele>251</ele>
        <time>2017-06-05T14:36:54Z</time>
      </trkpt>
      <trkpt lat="44.58163" lon="1.18719">
        <ele>250</ele>
        <time>2017-06-05T14:38:54Z</time>
      </trkpt>
      <trkpt lat="44.58165" lon="1.18706">
        <ele>249</ele>
        <time>2017-06-05T14:40:54Z</time>
      </trkpt>
      <trkpt lat="44.58167" lon="1.18693">
        <ele>248</ele>
        <time>2017-06-05T14:42:54Z</time>
      </trkpt>
      <trkpt lat="44.58171" lon="1.1868">
        <ele>247</ele>
        <time>2017-06-05T14:44:54Z</time>
      </trkpt>
      <trkpt lat="44.58178" lon="1.18669">
        <ele>246</ele>
        <time>2017-06-05T14:46:54Z</time>
      </trkpt>
      <trkpt lat="44.58181" lon="1.18655">
        <ele>245</ele>
        <time>2017-06-05T14:48:54Z</time>
      </trkpt>
      <trkpt lat="44.58183" lon="1.1864">
        <ele>244</ele>
        <time>2017-06-05T14:50:54Z</time>
      </trkpt>
      <trkpt lat="44.58182" lon="1.18626">
        <ele>243</ele>
        <time>2017-06-05T14:52:54Z</time>
      </trkpt>
      <trkpt lat="44.58186" lon="1.18613">
        <ele>242</ele>
        <time>2017-06-05T14:54:54Z</time>
      </trkpt>
      <trkpt lat="44.58191" lon="1.18602">
        <ele>242</ele>
        <time>2017-06-05T14:56:54Z</time>
      </trkpt>
      <trkpt lat="44.58197" lon="1.18591">
        <ele>241</ele>
        <time>2017-06-05T14:58:54Z</time>
      </trkpt>
      <trkpt lat="44.58202" lon="1.18579">
        <ele>241</ele>
        <time>2017-06-05T15:00:54Z</time>
      </trkpt>
      <trkpt lat="44.582" lon="1.18566">
        <ele>240</ele>
        <time>2017-06-05T15:02:54Z</time>
      </trkpt>
      <trkpt lat="44.58193" lon="1.18557">
        <ele>239</ele>
        <time>2017-06-05T15:04:54Z</time>
      </trkpt>
      <trkpt lat="44.58192" lon="1.18544">
        <ele>238</ele>
        <time>2017-06-05T15:06:54Z</time>
      </trkpt>
      <trkpt lat="44.58198" lon="1.18534">
        <ele>237</ele>
        <time>2017-06-05T15:08:54Z</time>
      </trkpt>
      <trkpt lat="44.58201" lon="1.1852">
        <ele>237</ele>
        <time>2017-06-05T15:10:54Z</time>
      </trkpt>
      <trkpt lat="44.58205" lon="1.18509">
        <ele>236</ele>
        <time>2017-06-05T15:12:54Z</time>
      </trkpt>
      <trkpt lat="44.58211" lon="1.18498">
        <ele>235</ele>
        <time>2017-06-05T15:14:54Z</time>
      </trkpt>
      <trkpt lat="44.58217" lon="1.18489">
        <ele>235</ele>
        <time>2017-06-05T15:16:54Z</time>
      </trkpt>
      <trkpt lat="44.58225" lon="1.1848">
        <ele>235</ele>
        <time>2017-06-05T15:18:54Z</time>
      </trkpt>
      <trkpt lat="44.58231" lon="1.18472">
        <ele>235</ele>
        <time>2017-06-05T15:20:54Z</time>
      </trkpt>
      <trkpt lat="44.58239" lon="1.18465">
        <ele>234</ele>
        <time>2017-06-05T15:22:54Z</time>
      </trkpt>
      <trkpt lat="44.58248" lon="1.18462">
        <ele>234</ele>
        <time>2017-06-05T15:24:54Z</time>
      </trkpt>
      <trkpt lat="44.58258" lon="1.18463">
        <ele>235</ele>
        <time>2017-06-05T15:26:54Z</time>
      </trkpt>
      <trkpt lat="44.58267" lon="1.18466">
        <ele>236</ele>
        <time>2017-06-05T15:28:54Z</time>
      </trkpt>
      <trkpt lat="44.58276" lon="1.18463">
        <ele>236</ele>
        <time>2017-06-05T15:30:54Z</time>
      </trkpt>
      <trkpt lat="44.58283" lon="1.18455">
        <ele>236</ele>
        <time>2017-06-05T15:32:54Z</time>
      </trkpt>
      <trkpt lat="44.58288" lon="1.18443">
        <ele>236</ele>
        <time>2017-06-05T15:34:54Z</time>
      </trkpt>
      <trkpt lat="44.58289" lon="1.18429">
        <ele>235</ele>
        <time>2017-06-05T15:36:54Z</time>
      </trkpt>
      <trkpt lat="44.583" lon="1.18406">
        <ele>234</ele>
        <time>2017-06-05T15:38:54Z</time>
      </trkpt>
      <trkpt lat="44.58307" lon="1.18396">
        <ele>234</ele>
        <time>2017-06-05T15:40:54Z</time>
      </trkpt>
      <trkpt lat="44.58313" lon="1.18385">
        <ele>234</ele>
        <time>2017-06-05T15:42:54Z</time>
      </trkpt>
      <trkpt lat="44.58319" lon="1.18375">
        <ele>234</ele>
        <time>2017-06-05T15:44:54Z</time>
      </trkpt>
      <trkpt lat="44.58327" lon="1.18367">
        <ele>234</ele>
        <time>2017-06-05T15:46:54Z</time>
      </trkpt>
      <trkpt lat="44.58334" lon="1.18359">
        <ele>234</ele>
        <time>2017-06-05T15:48:54Z</time>
      </trkpt>
      <trkpt lat="44.58341" lon="1.1835">
        <ele>233</ele>
        <time>2017-06-05T15:50:54Z</time>
      </trkpt>
      <trkpt lat="44.58357" lon="1.18334">
        <ele>233</ele>
        <time>2017-06-05T15:52:54Z</time>
      </trkpt>
      <trkpt lat="44.58364" lon="1.18326">
        <ele>233</ele>
        <time>2017-06-05T15:54:54Z</time>
      </trkpt>
      <trkpt lat="44.58369" lon="1.18315">
        <ele>233</ele>
        <time>2017-06-05T15:56:54Z</time>
      </trkpt>
      <trkpt lat="44.58376" lon="1.18307">
        <ele>233</ele>
        <time>2017-06-05T15:58:54Z</time>
      </trkpt>
      <trkpt lat="44.58384" lon="1.183">
        <ele>233</ele>
        <time>2017-06-05T16:00:54Z</time>
      </trkpt>
      <trkpt lat="44.58396" lon="1.18279">
        <ele>232</ele>
        <time>2017-06-05T16:02:54Z</time>
      </trkpt>
      <trkpt lat="44.58401" lon="1.18268">
        <ele>232</ele>
        <time>2017-06-05T16:04:54Z</time>
      </trkpt>
      <trkpt lat="44.58408" lon="1.1826">
        <ele>231</ele>
        <time>2017-06-05T16:06:54Z</time>
      </trkpt>
      <trkpt lat="44.58416" lon="1.18252">
        <ele>231</ele>
        <time>2017-06-05T16:08:54Z</time>
      </trkpt>
      <trkpt lat="44.58423" lon="1.18244">
        <ele>231</ele>
        <time>2017-06-05T16:10:54Z</time>
      </trkpt>
      <trkpt lat="44.5843" lon="1.18236">
        <ele>231</ele>
        <time>2017-06-05T16:12:54Z</time>
      </trkpt>
      <trkpt lat="44.58439" lon="1.18229">
        <ele>231</ele>
        <time>2017-06-05T16:14:54Z</time>
      </trkpt>
      <trkpt lat="44.58447" lon="1.18222">
        <ele>231</ele>
        <time>2017-06-05T16:16:54Z</time>
      </trkpt>
      <trkpt lat="44.58455" lon="1.18216">
        <ele>231</ele>
        <time>2017-06-05T16:18:54Z</time>
      </trkpt>
      <trkpt lat="44.58464" lon="1.18208">
        <ele>231</ele>
        <time>2017-06-05T16:20:54Z</time>
      </trkpt>
      <trkpt lat="44.58471" lon="1.18199">
        <ele>231</ele>
        <time>2017-06-05T16:22:54Z</time>
      </trkpt>
      <trkpt lat="44.58477" lon="1.18189">
        <ele>231</ele>
        <time>2017-06-05T16:24:54Z</time>
      </trkpt>
      <trkpt lat="44.5848" lon="1.18177">
        <ele>231</ele>
        <time>2017-06-05T16:26:54Z</time>
      </trkpt>
      <trkpt lat="44.58486" lon="1.18166">
        <ele>231</ele>
        <time>2017-06-05T16:28:54Z</time>
      </trkpt>
      <trkpt lat="44.58492" lon="1.18157">
        <ele>231</ele>
        <time>2017-06-05T16:30:54Z</time>
      </trkpt>
      <trkpt lat="44.58497" lon="1.18145">
        <ele>232</ele>
        <time>2017-06-05T16:32:54Z</time>
      </trkpt>
      <trkpt lat="44.58504" lon="1.18137">
        <ele>233</ele>
        <time>2017-06-05T16:34:54Z</time>
      </trkpt>
      <trkpt lat="44.5851" lon="1.18127">
        <ele>233</ele>
        <time>2017-06-05T16:36:54Z</time>
      </trkpt>
      <trkpt lat="44.58516" lon="1.18116">
        <ele>234</ele>
        <time>2017-06-05T16:38:54Z</time>
      </trkpt>
      <trkpt lat="44.58522" lon="1.18105">
        <ele>234</ele>
        <time>2017-06-05T16:40:54Z</time>
      </trkpt>
      <trkpt lat="44.5853" lon="1.18097">
        <ele>235</ele>
        <time>2017-06-05T16:42:54Z</time>
      </trkpt>
      <trkpt lat="44.58536" lon="1.18088">
        <ele>235</ele>
        <time>2017-06-05T16:44:54Z</time>
      </trkpt>
      <trkpt lat="44.58551" lon="1.1807">
        <ele>236</ele>
        <time>2017-06-05T16:46:54Z</time>
      </trkpt>
      <trkpt lat="44.58555" lon="1.18058">
        <ele>237</ele>
        <time>2017-06-05T16:48:54Z</time>
      </trkpt>
      <trkpt lat="44.5857" lon="1.18042">
        <ele>238</ele>
        <time>2017-06-05T16:50:54Z</time>
      </trkpt>
      <trkpt lat="44.58577" lon="1.18032">
        <ele>238</ele>
        <time>2017-06-05T16:52:54Z</time>
      </trkpt>
      <trkpt lat="44.58583" lon="1.18021">
        <ele>239</ele>
        <time>2017-06-05T16:54:54Z</time>
      </trkpt>
      <trkpt lat="44.58589" lon="1.1801">
        <ele>239</ele>
        <time>2017-06-05T16:56:54Z</time>
      </trkpt>
      <trkpt lat="44.58595" lon="1.18">
        <ele>240</ele>
        <time>2017-06-05T16:58:54Z</time>
      </trkpt>
      <trkpt lat="44.58602" lon="1.17992">
        <ele>241</ele>
        <time>2017-06-05T17:00:54Z</time>
      </trkpt>
      <trkpt lat="44.58616" lon="1.17972">
        <ele>242</ele>
        <time>2017-06-05T17:02:54Z</time>
      </trkpt>
      <trkpt lat="44.58623" lon="1.17962">
        <ele>243</ele>
        <time>2017-06-05T17:04:54Z</time>
      </trkpt>
      <trkpt lat="44.58629" lon="1.17952">
        <ele>244</ele>
        <time>2017-06-05T17:06:54Z</time>
      </trkpt>
      <trkpt lat="44.58638" lon="1.17947">
        <ele>244</ele>
        <time>2017-06-05T17:08:54Z</time>
      </trkpt>
      <trkpt lat="44.58647" lon="1.17948">
        <ele>244</ele>
        <time>2017-06-05T17:10:54Z</time>
      </trkpt>
      <trkpt lat="44.58656" lon="1.17945">
        <ele>244</ele>
        <time>2017-06-05T17:12:54Z</time>
      </trkpt>
      <trkpt lat="44.58648" lon="1.17952">
        <ele>244</ele>
        <time>2017-06-05T17:14:54Z</time>
      </trkpt>
      <trkpt lat="44.58656" lon="1.1796">
        <ele>243</ele>
        <time>2017-06-05T17:16:54Z</time>
      </trkpt>
      <trkpt lat="44.58662" lon="1.1797">
        <ele>243</ele>
        <time>2017-06-05T17:18:54Z</time>
      </trkpt>
      <trkpt lat="44.58669" lon="1.17979">
        <ele>243</ele>
        <time>2017-06-05T17:20:54Z</time>
      </trkpt>
      <trkpt lat="44.58676" lon="1.17988">
        <ele>244</ele>
        <time>2017-06-05T17:22:54Z</time>
      </trkpt>
      <trkpt lat="44.58682" lon="1.17999">
        <ele>244</ele>
        <time>2017-06-05T17:24:54Z</time>
      </trkpt>
      <trkpt lat="44.58687" lon="1.18011">
        <ele>245</ele>
        <time>2017-06-05T17:26:54Z</time>
      </trkpt>
      <trkpt lat="44.58694" lon="1.18021">
        <ele>245</ele>
        <time>2017-06-05T17:28:54Z</time>
      </trkpt>
      <trkpt lat="44.58718" lon="1.18042">
        <ele>247</ele>
        <time>2017-06-05T17:30:54Z</time>
      </trkpt>
      <trkpt lat="44.58727" lon="1.18049">
        <ele>248</ele>
        <time>2017-06-05T17:32:54Z</time>
      </trkpt>
      <trkpt lat="44.58735" lon="1.18056">
        <ele>249</ele>
        <time>2017-06-05T17:34:54Z</time>
      </trkpt>
      <trkpt lat="44.58742" lon="1.18065">
        <ele>249</ele>
        <time>2017-06-05T17:36:54Z</time>
      </trkpt>
      <trkpt lat="44.58748" lon="1.18077">
        <ele>250</ele>
        <time>2017-06-05T17:38:54Z</time>
      </trkpt>
      <trkpt lat="44.58756" lon="1.18086">
        <ele>250</ele>
        <time>2017-06-05T17:40:54Z</time>
      </trkpt>
      <trkpt lat="44.58762" lon="1.18096">
        <ele>250</ele>
        <time>2017-06-05T17:42:54Z</time>
      </trkpt>
      <trkpt lat="44.58768" lon="1.18106">
        <ele>251</ele>
        <time>2017-06-05T17:44:54Z</time>
      </trkpt>
      <trkpt lat="44.58774" lon="1.18117">
        <ele>251</ele>
        <time>2017-06-05T17:46:54Z</time>
      </trkpt>
      <trkpt lat="44.58779" lon="1.18127">
        <ele>251</ele>
        <time>2017-06-05T17:48:54Z</time>
      </trkpt>
      <trkpt lat="44.58785" lon="1.18138">
        <ele>251</ele>
        <time>2017-06-05T17:50:54Z</time>
      </trkpt>
      <trkpt lat="44.58796" lon="1.18161">
        <ele>252</ele>
        <time>2017-06-05T17:52:54Z</time>
      </trkpt>
      <trkpt lat="44.58801" lon="1.18173">
        <ele>252</ele>
        <time>2017-06-05T17:54:54Z</time>
      </trkpt>
      <trkpt lat="44.58808" lon="1.18182">
        <ele>253</ele>
        <time>2017-06-05T17:56:54Z</time>
      </trkpt>
      <trkpt lat="44.58813" lon="1.18194">
        <ele>254</ele>
        <time>2017-06-05T17:58:54Z</time>
      </trkpt>
      <trkpt lat="44.5882" lon="1.18202">
        <ele>254</ele>
        <time>2017-06-05T18:00:54Z</time>
      </trkpt>
      <trkpt lat="44.58827" lon="1.18212">
        <ele>255</ele>
        <time>2017-06-05T18:02:54Z</time>
      </trkpt>
      <trkpt lat="44.58833" lon="1.18222">
        <ele>255</ele>
        <time>2017-06-05T18:04:54Z</time>
      </trkpt>
      <trkpt lat="44.5884" lon="1.18231">
        <ele>256</ele>
        <time>2017-06-05T18:06:54Z</time>
      </trkpt>
      <trkpt lat="44.58844" lon="1.18243">
        <ele>257</ele>
        <time>2017-06-05T18:08:54Z</time>
      </trkpt>
      <trkpt lat="44.58851" lon="1.18254">
        <ele>258</ele>
        <time>2017-06-05T18:10:54Z</time>
      </trkpt>
      <trkpt lat="44.58857" lon="1.18265">
        <ele>258</ele>
        <time>2017-06-05T18:12:54Z</time>
      </trkpt>
      <trkpt lat="44.58862" lon="1.18275">
        <ele>259</ele>
        <time>2017-06-05T18:14:54Z</time>
      </trkpt>
      <trkpt lat="44.58867" lon="1.18287">
        <ele>259</ele>
        <time>2017-06-05T18:16:54Z</time>
      </trkpt>
      <trkpt lat="44.58872" lon="1.18299">
        <ele>260</ele>
        <time>2017-06-05T18:18:54Z</time>
      </trkpt>
      <trkpt lat="44.58879" lon="1.1831">
        <ele>261</ele>
        <time>2017-06-05T18:20:54Z</time>
      </trkpt>
      <trkpt lat="44.58884" lon="1.1832">
        <ele>262</ele>
        <time>2017-06-05T18:22:54Z</time>
      </trkpt>
      <trkpt lat="44.58889" lon="1.18331">
        <ele>263</ele>
        <time>2017-06-05T18:24:54Z</time>
      </trkpt>
      <trkpt lat="44.58893" lon="1.18344">
        <ele>263</ele>
        <time>2017-06-05T18:26:54Z</time>
      </trkpt>
      <trkpt lat="44.58896" lon="1.18357">
        <ele>264</ele>
        <time>2017-06-05T18:28:54Z</time>
      </trkpt>
      <trkpt lat="44.589" lon="1.18369">
        <ele>264</ele>
        <time>2017-06-05T18:30:54Z</time>
      </trkpt>
      <trkpt lat="44.58902" lon="1.18383">
        <ele>265</ele>
        <time>2017-06-05T18:32:54Z</time>
      </trkpt>
      <trkpt lat="44.58906" lon="1.18396">
        <ele>265</ele>
        <time>2017-06-05T18:34:54Z</time>
      </trkpt>
      <trkpt lat="44.58908" lon="1.18408">
        <ele>266</ele>
        <time>2017-06-05T18:36:54Z</time>
      </trkpt>
      <trkpt lat="44.5891" lon="1.18421">
        <ele>266</ele>
        <time>2017-06-05T18:38:54Z</time>
      </trkpt>
      <trkpt lat="44.58909" lon="1.18434">
        <ele>266</ele>
        <time>2017-06-05T18:40:54Z</time>
      </trkpt>
      <trkpt lat="44.58907" lon="1.18447">
        <ele>266</ele>
        <time>2017-06-05T18:42:54Z</time>
      </trkpt>
      <trkpt lat="44.58904" lon="1.18461">
        <ele>266</ele>
        <time>2017-06-05T18:44:54Z</time>
      </trkpt>
      <trkpt lat="44.58902" lon="1.18475">
        <ele>266</ele>
        <time>2017-06-05T18:46:54Z</time>
      </trkpt>
      <trkpt lat="44.58901" lon="1.18488">
        <ele>266</ele>
        <time>2017-06-05T18:48:54Z</time>
      </trkpt>
      <trkpt lat="44.589" lon="1.18501">
        <ele>266</ele>
        <time>2017-06-05T18:50:54Z</time>
      </trkpt>
      <trkpt lat="44.58893" lon="1.18526">
        <ele>266</ele>
        <time>2017-06-05T18:52:54Z</time>
      </trkpt>
      <trkpt lat="44.58891" lon="1.18539">
        <ele>266</ele>
        <time>2017-06-05T18:54:54Z</time>
      </trkpt>
      <trkpt lat="44.58888" lon="1.18553">
        <ele>267</ele>
        <time>2017-06-05T18:56:54Z</time>
      </trkpt>
      <trkpt lat="44.58887" lon="1.18566">
        <ele>267</ele>
        <time>2017-06-05T18:58:54Z</time>
      </trkpt>
      <trkpt lat="44.58883" lon="1.18578">
        <ele>267</ele>
        <time>2017-06-05T19:00:54Z</time>
      </trkpt>
      <trkpt lat="44.58878" lon="1.18605">
        <ele>269</ele>
        <time>2017-06-05T19:02:54Z</time>
      </trkpt>
      <trkpt lat="44.58872" lon="1.18629">
        <ele>270</ele>
        <time>2017-06-05T19:04:54Z</time>
      </trkpt>
      <trkpt lat="44.5887" lon="1.18642">
        <ele>271</ele>
        <time>2017-06-05T19:06:54Z</time>
      </trkpt>
      <trkpt lat="44.58872" lon="1.18655">
        <ele>272</ele>
        <time>2017-06-05T19:08:54Z</time>
      </trkpt>
      <trkpt lat="44.58881" lon="1.18659">
        <ele>273</ele>
        <time>2017-06-05T19:10:54Z</time>
      </trkpt>
      <trkpt lat="44.5889" lon="1.18654">
        <ele>273</ele>
        <time>2017-06-05T19:12:54Z</time>
      </trkpt>
      <trkpt lat="44.58898" lon="1.18645">
        <ele>274</ele>
        <time>2017-06-05T19:14:54Z</time>
      </trkpt>
      <trkpt lat="44.58907" lon="1.18638">
        <ele>274</ele>
        <time>2017-06-05T19:16:54Z</time>
      </trkpt>
      <trkpt lat="44.58922" lon="1.18622">
        <ele>273</ele>
        <time>2017-06-05T19:18:54Z</time>
      </trkpt>
      <trkpt lat="44.58928" lon="1.18613">
        <ele>272</ele>
        <time>2017-06-05T19:20:54Z</time>
      </trkpt>
      <trkpt lat="44.58937" lon="1.18608">
        <ele>272</ele>
        <time>2017-06-05T19:22:54Z</time>
      </trkpt>
      <trkpt lat="44.58946" lon="1.18607">
        <ele>272</ele>
        <time>2017-06-05T19:24:54Z</time>
      </trkpt>
      <trkpt lat="44.58954" lon="1.18603">
        <ele>271</ele>
        <time>2017-06-05T19:26:54Z</time>
      </trkpt>
      <trkpt lat="44.58964" lon="1.18597">
        <ele>271</ele>
        <time>2017-06-05T19:28:54Z</time>
      </trkpt>
      <trkpt lat="44.58973" lon="1.18592">
        <ele>271</ele>
        <time>2017-06-05T19:30:54Z</time>
      </trkpt>
      <trkpt lat="44.58982" lon="1.18586">
        <ele>270</ele>
        <time>2017-06-05T19:32:54Z</time>
      </trkpt>
      <trkpt lat="44.58991" lon="1.18581">
        <ele>270</ele>
        <time>2017-06-05T19:34:54Z</time>
      </trkpt>
      <trkpt lat="44.59" lon="1.18577">
        <ele>270</ele>
        <time>2017-06-05T19:36:54Z</time>
      </trkpt>
      <trkpt lat="44.59008" lon="1.1857">
        <ele>269</ele>
        <time>2017-06-05T19:38:54Z</time>
      </trkpt>
      <trkpt lat="44.59017" lon="1.18566">
        <ele>269</ele>
        <time>2017-06-05T19:40:54Z</time>
      </trkpt>
      <trkpt lat="44.59032" lon="1.18548">
        <ele>268</ele>
        <time>2017-06-05T19:42:54Z</time>
      </trkpt>
      <trkpt lat="44.59042" lon="1.18544">
        <ele>267</ele>
        <time>2017-06-05T19:44:54Z</time>
      </trkpt>
      <trkpt lat="44.5905" lon="1.18539">
        <ele>267</ele>
        <time>2017-06-05T19:46:54Z</time>
      </trkpt>
      <trkpt lat="44.59055" lon="1.18528">
        <ele>266</ele>
        <time>2017-06-05T19:48:54Z</time>
      </trkpt>
      <trkpt lat="44.59061" lon="1.18518">
        <ele>265</ele>
        <time>2017-06-05T19:50:54Z</time>
      </trkpt>
      <trkpt lat="44.5907" lon="1.18515">
        <ele>265</ele>
        <time>2017-06-05T19:52:54Z</time>
      </trkpt>
      <trkpt lat="44.59075" lon="1.18504">
        <ele>264</ele>
        <time>2017-06-05T19:54:54Z</time>
      </trkpt>
      <trkpt lat="44.59081" lon="1.18493">
        <ele>264</ele>
        <time>2017-06-05T19:56:54Z</time>
      </trkpt>
      <trkpt lat="44.59089" lon="1.18487">
        <ele>264</ele>
        <time>2017-06-05T19:58:54Z</time>
      </trkpt>
      <trkpt lat="44.59099" lon="1.1848">
        <ele>264</ele>
        <time>2017-06-05T20:00:54Z</time>
      </trkpt>
      <trkpt lat="44.59108" lon="1.18473">
        <ele>264</ele>
        <time>2017-06-05T20:02:54Z</time>
      </trkpt>
      <trkpt lat="44.59115" lon="1.18463">
        <ele>264</ele>
        <time>2017-06-05T20:04:54Z</time>
      </trkpt>
      <trkpt lat="44.59123" lon="1.18457">
        <ele>263</ele>
        <time>2017-06-05T20:06:54Z</time>
      </trkpt>
      <trkpt lat="44.59131" lon="1.18447">
        <ele>263</ele>
        <time>2017-06-05T20:08:54Z</time>
      </trkpt>
      <trkpt lat="44.59138" lon="1.18438">
        <ele>262</ele>
        <time>2017-06-05T20:10:54Z</time>
      </trkpt>
      <trkpt lat="44.59143" lon="1.18425">
        <ele>262</ele>
        <time>2017-06-05T20:12:54Z</time>
      </trkpt>
      <trkpt lat="44.59146" lon="1.18413">
        <ele>261</ele>
        <time>2017-06-05T20:14:54Z</time>
      </trkpt>
      <trkpt lat="44.59154" lon="1.18405">
        <ele>261</ele>
        <time>2017-06-05T20:16:54Z</time>
      </trkpt>
      <trkpt lat="44.59172" lon="1.18394">
        <ele>261</ele>
        <time>2017-06-05T20:18:54Z</time>
      </trkpt>
      <trkpt lat="44.5918" lon="1.18385">
        <ele>261</ele>
        <time>2017-06-05T20:20:54Z</time>
      </trkpt>
      <trkpt lat="44.59199" lon="1.18378">
        <ele>261</ele>
        <time>2017-06-05T20:22:54Z</time>
      </trkpt>
      <trkpt lat="44.59207" lon="1.18373">
        <ele>260</ele>
        <time>2017-06-05T20:24:54Z</time>
      </trkpt>
      <trkpt lat="44.59216" lon="1.18367">
        <ele>260</ele>
        <time>2017-06-05T20:26:54Z</time>
      </trkpt>
      <trkpt lat="44.59229" lon="1.18347">
        <ele>259</ele>
        <time>2017-06-05T20:28:54Z</time>
      </trkpt>
      <trkpt lat="44.59237" lon="1.18338">
        <ele>258</ele>
        <time>2017-06-05T20:30:54Z</time>
      </trkpt>
      <trkpt lat="44.59244" lon="1.18329">
        <ele>257</ele>
        <time>2017-06-05T20:32:54Z</time>
      </trkpt>
      <trkpt lat="44.59253" lon="1.18324">
        <ele>257</ele>
        <time>2017-06-05T20:34:54Z</time>
      </trkpt>
      <trkpt lat="44.59261" lon="1.18319">
        <ele>256</ele>
        <time>2017-06-05T20:36:54Z</time>
      </trkpt>
      <trkpt lat="44.59272" lon="1.18317">
        <ele>256</ele>
        <time>2017-06-05T20:38:54Z</time>
      </trkpt>
      <trkpt lat="44.59281" lon="1.18317">
        <ele>255</ele>
        <time>2017-06-05T20:40:54Z</time>
      </trkpt>
      <trkpt lat="44.593" lon="1.18319">
        <ele>254</ele>
        <time>2017-06-05T20:42:54Z</time>
      </trkpt>
      <trkpt lat="44.59309" lon="1.18321">
        <ele>254</ele>
        <time>2017-06-05T20:44:54Z</time>
      </trkpt>
      <trkpt lat="44.59319" lon="1.18321">
        <ele>253</ele>
        <time>2017-06-05T20:46:54Z</time>
      </trkpt>
      <trkpt lat="44.59328" lon="1.18325">
        <ele>253</ele>
        <time>2017-06-05T20:48:54Z</time>
      </trkpt>
      <trkpt lat="44.59338" lon="1.18328">
        <ele>252</ele>
        <time>2017-06-05T20:50:54Z</time>
      </trkpt>
      <trkpt lat="44.59346" lon="1.18332">
        <ele>251</ele>
        <time>2017-06-05T20:52:54Z</time>
      </trkpt>
      <trkpt lat="44.59356" lon="1.18338">
        <ele>251</ele>
        <time>2017-06-05T20:54:54Z</time>
      </trkpt>
      <trkpt lat="44.59363" lon="1.18345">
        <ele>251</ele>
        <time>2017-06-05T20:56:54Z</time>
      </trkpt>
      <trkpt lat="44.5937" lon="1.18353">
        <ele>250</ele>
        <time>2017-06-05T20:58:54Z</time>
      </trkpt>
      <trkpt lat="44.59376" lon="1.18363">
        <ele>250</ele>
        <time>2017-06-05T21:00:54Z</time>
      </trkpt>
      <trkpt lat="44.59385" lon="1.18372">
        <ele>249</ele>
        <time>2017-06-05T21:02:54Z</time>
      </trkpt>
      <trkpt lat="44.59393" lon="1.18378">
        <ele>248</ele>
        <time>2017-06-05T21:04:54Z</time>
      </trkpt>
      <trkpt lat="44.594" lon="1.18387">
        <ele>248</ele>
        <time>2017-06-05T21:06:54Z</time>
      </trkpt>
      <trkpt lat="44.59405" lon="1.18397">
        <ele>247</ele>
        <time>2017-06-05T21:08:54Z</time>
      </trkpt>
      <trkpt lat="44.5941" lon="1.18411">
        <ele>246</ele>
        <time>2017-06-05T21:10:54Z</time>
      </trkpt>
      <trkpt lat="44.59417" lon="1.1842">
        <ele>245</ele>
        <time>2017-06-05T21:12:54Z</time>
      </trkpt>
      <trkpt lat="44.59424" lon="1.18427">
        <ele>245</ele>
        <time>2017-06-05T21:14:54Z</time>
      </trkpt>
      <trkpt lat="44.59432" lon="1.18435">
        <ele>244</ele>
        <time>2017-06-05T21:16:54Z</time>
      </trkpt>
      <trkpt lat="44.59441" lon="1.18441">
        <ele>244</ele>
        <time>2017-06-05T21:18:54Z</time>
      </trkpt>
      <trkpt lat="44.5945" lon="1.18439">
        <ele>243</ele>
        <time>2017-06-05T21:20:54Z</time>
      </trkpt>
      <trkpt lat="44.59459" lon="1.18435">
        <ele>243</ele>
        <time>2017-06-05T21:22:54Z</time>
      </trkpt>
      <trkpt lat="44.59478" lon="1.18431">
        <ele>241</ele>
        <time>2017-06-05T21:24:54Z</time>
      </trkpt>
      <trkpt lat="44.59487" lon="1.18431">
        <ele>240</ele>
        <time>2017-06-05T21:26:54Z</time>
      </trkpt>
      <trkpt lat="44.59496" lon="1.1843">
        <ele>240</ele>
        <time>2017-06-05T21:28:54Z</time>
      </trkpt>
      <trkpt lat="44.59506" lon="1.18431">
        <ele>239</ele>
        <time>2017-06-05T21:30:54Z</time>
      </trkpt>
      <trkpt lat="44.59524" lon="1.1843">
        <ele>238</ele>
        <time>2017-06-05T21:32:54Z</time>
      </trkpt>
      <trkpt lat="44.59543" lon="1.18434">
        <ele>237</ele>
        <time>2017-06-05T21:34:54Z</time>
      </trkpt>
      <trkpt lat="44.59553" lon="1.18436">
        <ele>237</ele>
        <time>2017-06-05T21:36:54Z</time>
      </trkpt>
      <trkpt lat="44.59562" lon="1.18437">
        <ele>237</ele>
        <time>2017-06-05T21:38:54Z</time>
      </trkpt>
      <trkpt lat="44.59572" lon="1.18439">
        <ele>236</ele>
        <time>2017-06-05T21:40:54Z</time>
      </trkpt>
      <trkpt lat="44.59566" lon="1.1845">
        <ele>238</ele>
        <time>2017-06-05T21:42:54Z</time>
      </trkpt>
      <trkpt lat="44.59556" lon="1.18454">
        <ele>238</ele>
        <time>2017-06-05T21:44:54Z</time>
      </trkpt>
      <trkpt lat="44.59547" lon="1.18455">
        <ele>239</ele>
        <time>2017-06-05T21:46:54Z</time>
      </trkpt>
      <trkpt lat="44.59537" lon="1.18455">
        <ele>239</ele>
        <time>2017-06-05T21:48:54Z</time>
      </trkpt>
      <trkpt lat="44.59528" lon="1.18454">
        <ele>239</ele>
        <time>2017-06-05T21:50:54Z</time>
      </trkpt>
      <trkpt lat="44.59519" lon="1.18457">
        <ele>240</ele>
        <time>2017-06-05T21:52:54Z</time>
      </trkpt>
      <trkpt lat="44.59511" lon="1.18462">
        <ele>240</ele>
        <time>2017-06-05T21:54:54Z</time>
      </trkpt>
      <trkpt lat="44.59503" lon="1.18471">
        <ele>241</ele>
        <time>2017-06-05T21:56:54Z</time>
      </trkpt>
      <trkpt lat="44.59498" lon="1.18481">
        <ele>241</ele>
        <time>2017-06-05T21:58:54Z</time>
      </trkpt>
      <trkpt lat="44.59492" lon="1.18492">
        <ele>242</ele>
        <time>2017-06-05T22:00:54Z</time>
      </trkpt>
      <trkpt lat="44.59487" lon="1.18504">
        <ele>243</ele>
        <time>2017-06-05T22:02:54Z</time>
      </trkpt>
      <trkpt lat="44.59482" lon="1.18516">
        <ele>244</ele>
        <time>2017-06-05T22:04:54Z</time>
      </trkpt>
      <trkpt lat="44.59482" lon="1.18529">
        <ele>245</ele>
        <time>2017-06-05T22:06:54Z</time>
      </trkpt>
      <trkpt lat="44.59476" lon="1.1854">
        <ele>247</ele>
        <time>2017-06-05T22:08:54Z</time>
      </trkpt>
      <trkpt lat="44.59475" lon="1.18554">
        <ele>248</ele>
        <time>2017-06-05T22:10:54Z</time>
      </trkpt>
      <trkpt lat="44.59468" lon="1.18564">
        <ele>249</ele>
        <time>2017-06-05T22:12:54Z</time>
      </trkpt>
      <trkpt lat="44.59465" lon="1.18576">
        <ele>250</ele>
        <time>2017-06-05T22:14:54Z</time>
      </trkpt>
      <trkpt lat="44.59459" lon="1.18587">
        <ele>251</ele>
        <time>2017-06-05T22:16:54Z</time>
      </trkpt>
      <trkpt lat="44.59456" lon="1.18599">
        <ele>253</ele>
        <time>2017-06-05T22:18:54Z</time>
      </trkpt>
      <trkpt lat="44.5946" lon="1.18611">
        <ele>254</ele>
        <time>2017-06-05T22:20:54Z</time>
      </trkpt>
      <trkpt lat="44.59468" lon="1.18618">
        <ele>254</ele>
        <time>2017-06-05T22:22:54Z</time>
      </trkpt>
      <trkpt lat="44.59473" lon="1.18629">
        <ele>254</ele>
        <time>2017-06-05T22:24:54Z</time>
      </trkpt>
      <trkpt lat="44.5948" lon="1.18639">
        <ele>255</ele>
        <time>2017-06-05T22:26:54Z</time>
      </trkpt>
      <trkpt lat="44.59481" lon="1.18652">
        <ele>256</ele>
        <time>2017-06-05T22:28:54Z</time>
      </trkpt>
      <trkpt lat="44.59479" lon="1.18665">
        <ele>257</ele>
        <time>2017-06-05T22:30:54Z</time>
      </trkpt>
      <trkpt lat="44.59477" lon="1.18679">
        <ele>258</ele>
        <time>2017-06-05T22:32:54Z</time>
      </trkpt>
      <trkpt lat="44.59473" lon="1.1869">
        <ele>259</ele>
        <time>2017-06-05T22:34:54Z</time>
      </trkpt>
      <trkpt lat="44.59466" lon="1.18698">
        <ele>260</ele>
        <time>2017-06-05T22:36:54Z</time>
      </trkpt>
      <trkpt lat="44.59455" lon="1.1872">
        <ele>262</ele>
        <time>2017-06-05T22:38:54Z</time>
      </trkpt>
      <trkpt lat="44.59445" lon="1.18743">
        <ele>265</ele>
        <time>2017-06-05T22:40:54Z</time>
      </trkpt>
      <trkpt lat="44.59439" lon="1.18754">
        <ele>266</ele>
        <time>2017-06-05T22:42:54Z</time>
      </trkpt>
      <trkpt lat="44.59434" lon="1.18765">
        <ele>267</ele>
        <time>2017-06-05T22:44:54Z</time>
      </trkpt>
      <trkpt lat="44.59422" lon="1.18787">
        <ele>268</ele>
        <time>2017-06-05T22:46:54Z</time>
      </trkpt>
      <trkpt lat="44.59415" lon="1.18797">
        <ele>269</ele>
        <time>2017-06-05T22:48:54Z</time>
      </trkpt>
      <trkpt lat="44.59409" lon="1.18807">
        <ele>269</ele>
        <time>2017-06-05T22:50:54Z</time>
      </trkpt>
      <trkpt lat="44.59402" lon="1.18815">
        <ele>270</ele>
        <time>2017-06-05T22:52:54Z</time>
      </trkpt>
      <trkpt lat="44.59394" lon="1.18823">
        <ele>271</ele>
        <time>2017-06-05T22:54:54Z</time>
      </trkpt>
      <trkpt lat="44.59379" lon="1.1884">
        <ele>272</ele>
        <time>2017-06-05T22:56:54Z</time>
      </trkpt>
      <trkpt lat="44.59374" lon="1.18852">
        <ele>273</ele>
        <time>2017-06-05T22:58:54Z</time>
      </trkpt>
      <trkpt lat="44.59367" lon="1.1886">
        <ele>274</ele>
        <time>2017-06-05T23:00:54Z</time>
      </trkpt>
      <trkpt lat="44.59361" lon="1.18869">
        <ele>274</ele>
        <time>2017-06-05T23:02:54Z</time>
      </trkpt>
      <trkpt lat="44.59354" lon="1.18877">
        <ele>275</ele>
        <time>2017-06-05T23:04:54Z</time>
      </trkpt>
      <trkpt lat="44.59352" lon="1.18889">
        <ele>275</ele>
        <time>2017-06-05T23:06:54Z</time>
      </trkpt>
      <trkpt lat="44.59343" lon="1.18889">
        <ele>276</ele>
        <time>2017-06-05T23:08:54Z</time>
      </trkpt>
      <trkpt lat="44.59335" lon="1.18897">
        <ele>277</ele>
        <time>2017-06-05T23:10:54Z</time>
      </trkpt>
      <trkpt lat="44.59327" lon="1.18905">
        <ele>278</ele>
        <time>2017-06-05T23:12:54Z</time>
      </trkpt>
      <trkpt lat="44.59318" lon="1.18911">
        <ele>278</ele>
        <time>2017-06-05T23:14:54Z</time>
      </trkpt>
      <trkpt lat="44.59312" lon="1.1892">
        <ele>279</ele>
        <time>2017-06-05T23:16:54Z</time>
      </trkpt>
      <trkpt lat="44.59298" lon="1.18939">
        <ele>280</ele>
        <time>2017-06-05T23:18:54Z</time>
      </trkpt>
      <trkpt lat="44.59289" lon="1.18947">
        <ele>281</ele>
        <time>2017-06-05T23:20:54Z</time>
      </trkpt>
      <trkpt lat="44.59283" lon="1.18957">
        <ele>282</ele>
        <time>2017-06-05T23:22:54Z</time>
      </trkpt>
      <trkpt lat="44.59276" lon="1.18965">
        <ele>282</ele>
        <time>2017-06-05T23:24:54Z</time>
      </trkpt>
      <trkpt lat="44.59269" lon="1.18975">
        <ele>283</ele>
        <time>2017-06-05T23:26:54Z</time>
      </trkpt>
      <trkpt lat="44.59262" lon="1.18984">
        <ele>284</ele>
        <time>2017-06-05T23:28:54Z</time>
      </trkpt>
      <trkpt lat="44.59255" lon="1.18992">
        <ele>284</ele>
        <time>2017-06-05T23:30:54Z</time>
      </trkpt>
      <trkpt lat="44.59249" lon="1.19002">
        <ele>285</ele>
        <time>2017-06-05T23:32:54Z</time>
      </trkpt>
      <trkpt lat="44.59241" lon="1.1901">
        <ele>285</ele>
        <time>2017-06-05T23:34:54Z</time>
      </trkpt>
      <trkpt lat="44.59233" lon="1.19017">
        <ele>286</ele>
        <time>2017-06-05T23:36:54Z</time>
      </trkpt>
      <trkpt lat="44.59227" lon="1.19027">
        <ele>286</ele>
        <time>2017-06-05T23:38:54Z</time>
      </trkpt>
      <trkpt lat="44.59222" lon="1.19037">
        <ele>287</ele>
        <time>2017-06-05T23:40:54Z</time>
      </trkpt>
      <trkpt lat="44.59216" lon="1.19047">
        <ele>287</ele>
        <time>2017-06-05T23:42:54Z</time>
      </trkpt>
      <trkpt lat="44.59209" lon="1.19057">
        <ele>287</ele>
        <time>2017-06-05T23:44:54Z</time>
      </trkpt>
      <trkpt lat="44.59203" lon="1.19066">
        <ele>288</ele>
        <time>2017-06-05T23:46:54Z</time>
      </trkpt>
      <trkpt lat="44.59195" lon="1.19074">
        <ele>288</ele>
        <time>2017-06-05T23:48:54Z</time>
      </trkpt>
      <trkpt lat="44.59176" lon="1.19104">
        <ele>290</ele>
        <time>2017-06-05T23:50:54Z</time>
      </trkpt>
      <trkpt lat="44.59169" lon="1.19115">
        <ele>290</ele>
        <time>2017-06-05T23:52:54Z</time>
      </trkpt>
      <trkpt lat="44.5916" lon="1.19119">
        <ele>290</ele>
        <time>2017-06-05T23:54:54Z</time>
      </trkpt>
      <trkpt lat="44.59154" lon="1.1913">
        <ele>290</ele>
        <time>2017-06-05T23:56:54Z</time>
      </trkpt>
      <trkpt lat="44.59147" lon="1.19139">
        <ele>290</ele>
        <time>2017-06-05T23:58:54Z</time>
      </trkpt>
      <trkpt lat="44.5914" lon="1.19151">
        <ele>290</ele>
        <time>2017-06-06T00:00:54Z</time>
      </trkpt>
      <trkpt lat="44.59133" lon="1.1916">
        <ele>290</ele>
        <time>2017-06-06T00:02:54Z</time>
      </trkpt>
      <trkpt lat="44.59126" lon="1.19168">
        <ele>290</ele>
        <time>2017-06-06T00:04:54Z</time>
      </trkpt>
      <trkpt lat="44.59119" lon="1.19178">
        <ele>290</ele>
        <time>2017-06-06T00:06:54Z</time>
      </trkpt>
      <trkpt lat="44.591" lon="1.19211">
        <ele>290</ele>
        <time>2017-06-06T00:08:54Z</time>
      </trkpt>
      <trkpt lat="44.59095" lon="1.19221">
        <ele>291</ele>
        <time>2017-06-06T00:10:54Z</time>
      </trkpt>
      <trkpt lat="44.59092" lon="1.19234">
        <ele>291</ele>
        <time>2017-06-06T00:12:54Z</time>
      </trkpt>
      <trkpt lat="44.59085" lon="1.19249">
        <ele>291</ele>
        <time>2017-06-06T00:14:54Z</time>
      </trkpt>
      <trkpt lat="44.59081" lon="1.19261">
        <ele>291</ele>
        <time>2017-06-06T00:16:54Z</time>
      </trkpt>
      <trkpt lat="44.59076" lon="1.19272">
        <ele>291</ele>
        <time>2017-06-06T00:18:54Z</time>
      </trkpt>
      <trkpt lat="44.59072" lon="1.19285">
        <ele>291</ele>
        <time>2017-06-06T00:20:54Z</time>
      </trkpt>
      <trkpt lat="44.5907" lon="1.19297">
        <ele>291</ele>
        <time>2017-06-06T00:22:54Z</time>
      </trkpt>
      <trkpt lat="44.59067" lon="1.19309">
        <ele>291</ele>
        <time>2017-06-06T00:24:54Z</time>
      </trkpt>
      <trkpt lat="44.59064" lon="1.19323">
        <ele>292</ele>
        <time>2017-06-06T00:26:54Z</time>
      </trkpt>
      <trkpt lat="44.5906" lon="1.19336">
        <ele>292</ele>
        <time>2017-06-06T00:28:54Z</time>
      </trkpt>
      <trkpt lat="44.59057" lon="1.19349">
        <ele>293</ele>
        <time>2017-06-06T00:30:54Z</time>
      </trkpt>
      <trkpt lat="44.59054" lon="1.19361">
        <ele>293</ele>
        <time>2017-06-06T00:32:54Z</time>
      </trkpt>
      <trkpt lat="44.59051" lon="1.19374">
        <ele>294</ele>
        <time>2017-06-06T00:34:54Z</time>
      </trkpt>
      <trkpt lat="44.59046" lon="1.19385">
        <ele>294</ele>
        <time>2017-06-06T00:36:54Z</time>
      </trkpt>
      <trkpt lat="44.59041" lon="1.19396">
        <ele>295</ele>
        <time>2017-06-06T00:38:54Z</time>
      </trkpt>
      <trkpt lat="44.59035" lon="1.19406">
        <ele>295</ele>
        <time>2017-06-06T00:40:54Z</time>
      </trkpt>
      <trkpt lat="44.59032" lon="1.19419">
        <ele>296</ele>
        <time>2017-06-06T00:42:54Z</time>
      </trkpt>
      <trkpt lat="44.59025" lon="1.19445">
        <ele>297</ele>
        <time>2017-06-06T00:44:54Z</time>
      </trkpt>
      <trkpt lat="44.59022" lon="1.19457">
        <ele>297</ele>
        <time>2017-06-06T00:46:54Z</time>
      </trkpt>
      <trkpt lat="44.59019" lon="1.1947">
        <ele>298</ele>
        <time>2017-06-06T00:48:54Z</time>
      </trkpt>
      <trkpt lat="44.59016" lon="1.19483">
        <ele>298</ele>
        <time>2017-06-06T00:50:54Z</time>
      </trkpt>
      <trkpt lat="44.59008" lon="1.19506">
        <ele>299</ele>
        <time>2017-06-06T00:52:54Z</time>
      </trkpt>
      <trkpt lat="44.59005" lon="1.19519">
        <ele>299</ele>
        <time>2017-06-06T00:54:54Z</time>
      </trkpt>
      <trkpt lat="44.59" lon="1.19531">
        <ele>299</ele>
        <time>2017-06-06T00:56:54Z</time>
      </trkpt>
      <trkpt lat="44.58997" lon="1.19544">
        <ele>299</ele>
        <time>2017-06-06T00:58:54Z</time>
      </trkpt>
      <trkpt lat="44.58995" lon="1.19557">
        <ele>299</ele>
        <time>2017-06-06T01:00:54Z</time>
      </trkpt>
      <trkpt lat="44.58989" lon="1.19582">
        <ele>299</ele>
        <time>2017-06-06T01:02:54Z</time>
      </trkpt>
      <trkpt lat="44.58987" lon="1.19595">
        <ele>298</ele>
        <time>2017-06-06T01:04:54Z</time>
      </trkpt>
      <trkpt lat="44.58988" lon="1.19608">
        <ele>298</ele>
        <time>2017-06-06T01:06:54Z</time>
      </trkpt>
      <trkpt lat="44.58991" lon="1.1962">
        <ele>299</ele>
        <time>2017-06-06T01:08:54Z</time>
      </trkpt>
      <trkpt lat="44.58991" lon="1.19633">
        <ele>299</ele>
        <time>2017-06-06T01:10:54Z</time>
      </trkpt>
      <trkpt lat="44.58986" lon="1.19646">
        <ele>298</ele>
        <time>2017-06-06T01:12:54Z</time>
      </trkpt>
      <trkpt lat="44.58985" lon="1.19659">
        <ele>298</ele>
        <time>2017-06-06T01:14:54Z</time>
      </trkpt>
      <trkpt lat="44.58979" lon="1.19684">
        <ele>297</ele>
        <time>2017-06-06T01:16:54Z</time>
      </trkpt>
      <trkpt lat="44.58975" lon="1.19696">
        <ele>296</ele>
        <time>2017-06-06T01:18:54Z</time>
      </trkpt>
      <trkpt lat="44.58972" lon="1.19708">
        <ele>296</ele>
        <time>2017-06-06T01:20:54Z</time>
      </trkpt>
      <trkpt lat="44.58967" lon="1.1972">
        <ele>296</ele>
        <time>2017-06-06T01:22:54Z</time>
      </trkpt>
      <trkpt lat="44.58966" lon="1.19734">
        <ele>296</ele>
        <time>2017-06-06T01:24:54Z</time>
      </trkpt>
      <trkpt lat="44.58965" lon="1.19747">
        <ele>296</ele>
        <time>2017-06-06T01:26:54Z</time>
      </trkpt>
      <trkpt lat="44.58962" lon="1.19759">
        <ele>296</ele>
        <time>2017-06-06T01:28:54Z</time>
      </trkpt>
      <trkpt lat="44.58958" lon="1.19772">
        <ele>295</ele>
        <time>2017-06-06T01:30:54Z</time>
      </trkpt>
      <trkpt lat="44.58953" lon="1.19783">
        <ele>295</ele>
        <time>2017-06-06T01:32:54Z</time>
      </trkpt>
      <trkpt lat="44.58949" lon="1.19795">
        <ele>295</ele>
        <time>2017-06-06T01:34:54Z</time>
      </trkpt>
      <trkpt lat="44.58945" lon="1.19807">
        <ele>295</ele>
        <time>2017-06-06T01:36:54Z</time>
      </trkpt>
      <trkpt lat="44.58941" lon="1.1982">
        <ele>295</ele>
        <time>2017-06-06T01:38:54Z</time>
      </trkpt>
      <trkpt lat="44.58939" lon="1.19832">
        <ele>295</ele>
        <time>2017-06-06T01:40:54Z</time>
      </trkpt>
      <trkpt lat="44.58932" lon="1.19856">
        <ele>294</ele>
        <time>2017-06-06T01:42:54Z</time>
      </trkpt>
      <trkpt lat="44.58927" lon="1.19868">
        <ele>294</ele>
        <time>2017-06-06T01:44:54Z</time>
      </trkpt>
      <trkpt lat="44.58922" lon="1.19879">
        <ele>294</ele>
        <time>2017-06-06T01:46:54Z</time>
      </trkpt>
      <trkpt lat="44.58917" lon="1.1989">
        <ele>294</ele>
        <time>2017-06-06T01:48:54Z</time>
      </trkpt>
      <trkpt lat="44.5891" lon="1.199">
        <ele>293</ele>
        <time>2017-06-06T01:50:54Z</time>
      </trkpt>
      <trkpt lat="44.58904" lon="1.1991">
        <ele>293</ele>
        <time>2017-06-06T01:52:54Z</time>
      </trkpt>
      <trkpt lat="44.58898" lon="1.19922">
        <ele>293</ele>
        <time>2017-06-06T01:54:54Z</time>
      </trkpt>
      <trkpt lat="44.58897" lon="1.19936">
        <ele>292</ele>
        <time>2017-06-06T01:56:54Z</time>
      </trkpt>
      <trkpt lat="44.58904" lon="1.19944">
        <ele>292</ele>
        <time>2017-06-06T01:58:54Z</time>
      </trkpt>
      <trkpt lat="44.58914" lon="1.19948">
        <ele>292</ele>
        <time>2017-06-06T02:00:54Z</time>
      </trkpt>
      <trkpt lat="44.58923" lon="1.19952">
        <ele>291</ele>
        <time>2017-06-06T02:02:54Z</time>
      </trkpt>
      <trkpt lat="44.58932" lon="1.19956">
        <ele>289</ele>
        <time>2017-06-06T02:04:54Z</time>
      </trkpt>
      <trkpt lat="44.58937" lon="1.19969">
        <ele>288</ele>
        <time>2017-06-06T02:06:54Z</time>
      </trkpt>
      <trkpt lat="44.58939" lon="1.19981">
        <ele>288</ele>
        <time>2017-06-06T02:08:54Z</time>
      </trkpt>
      <trkpt lat="44.58943" lon="1.19993">
        <ele>287</ele>
        <time>2017-06-06T02:10:54Z</time>
      </trkpt>
      <trkpt lat="44.58945" lon="1.20007">
        <ele>286</ele>
        <time>2017-06-06T02:12:54Z</time>
      </trkpt>
      <trkpt lat="44.58946" lon="1.2002">
        <ele>285</ele>
        <time>2017-06-06T02:14:54Z</time>
      </trkpt>
      <trkpt lat="44.5895" lon="1.20033">
        <ele>284</ele>
        <time>2017-06-06T02:16:54Z</time>
      </trkpt>
      <trkpt lat="44.58959" lon="1.20037">
        <ele>282</ele>
        <time>2017-06-06T02:18:54Z</time>
      </trkpt>
      <trkpt lat="44.58968" lon="1.2003">
        <ele>281</ele>
        <time>2017-06-06T02:20:54Z</time>
      </trkpt>
      <trkpt lat="44.58975" lon="1.20023">
        <ele>280</ele>
        <time>2017-06-06T02:22:54Z</time>
      </trkpt>
      <trkpt lat="44.58985" lon="1.20015">
        <ele>278</ele>
        <time>2017-06-06T02:24:54Z</time>
      </trkpt>
      <trkpt lat="44.58997" lon="1.19997">
        <ele>277</ele>
        <time>2017-06-06T02:26:54Z</time>
      </trkpt>
      <trkpt lat="44.59002" lon="1.19986">
        <ele>276</ele>
        <time>2017-06-06T02:28:54Z</time>
      </trkpt>
      <trkpt lat="44.59009" lon="1.19977">
        <ele>276</ele>
        <time>2017-06-06T02:30:54Z</time>
      </trkpt>
      <trkpt lat="44.59014" lon="1.19967">
        <ele>276</ele>
        <time>2017-06-06T02:32:54Z</time>
      </trkpt>
      <trkpt lat="44.59022" lon="1.19959">
        <ele>276</ele>
        <time>2017-06-06T02:34:54Z</time>
      </trkpt>
      <trkpt lat="44.5903" lon="1.19951">
        <ele>276</ele>
        <time>2017-06-06T02:36:54Z</time>
      </trkpt>
      <trkpt lat="44.59039" lon="1.19951">
        <ele>275</ele>
        <time>2017-06-06T02:38:54Z</time>
      </trkpt>
      <trkpt lat="44.59049" lon="1.19953">
        <ele>274</ele>
        <time>2017-06-06T02:40:54Z</time>
      </trkpt>
      <trkpt lat="44.59057" lon="1.19961">
        <ele>273</ele>
        <time>2017-06-06T02:42:54Z</time>
      </trkpt>
      <trkpt lat="44.5907" lon="1.19982">
        <ele>270</ele>
        <time>2017-06-06T02:44:54Z</time>
      </trkpt>
      <trkpt lat="44.59079" lon="1.19988">
        <ele>269</ele>
        <time>2017-06-06T02:46:54Z</time>
      </trkpt>
      <trkpt lat="44.59087" lon="1.19995">
        <ele>267</ele>
        <time>2017-06-06T02:48:54Z</time>
      </trkpt>
      <trkpt lat="44.59096" lon="1.19999">
        <ele>266</ele>
        <time>2017-06-06T02:50:54Z</time>
      </trkpt>
      <trkpt lat="44.59106" lon="1.19999">
        <ele>266</ele>
        <time>2017-06-06T02:52:54Z</time>
      </trkpt>
      <trkpt lat="44.59115" lon="1.19997">
        <ele>266</ele>
        <time>2017-06-06T02:54:54Z</time>
      </trkpt>
      <trkpt lat="44.59126" lon="1.19995">
        <ele>265</ele>
        <time>2017-06-06T02:56:54Z</time>
      </trkpt>
      <trkpt lat="44.59135" lon="1.19993">
        <ele>265</ele>
        <time>2017-06-06T02:58:54Z</time>
      </trkpt>
      <trkpt lat="44.59152" lon="1.1998">
        <ele>265</ele>
        <time>2017-06-06T03:00:54Z</time>
      </trkpt>
      <trkpt lat="44.5916" lon="1.19972">
        <ele>266</ele>
        <time>2017-06-06T03:02:54Z</time>
      </trkpt>
      <trkpt lat="44.5917" lon="1.1997">
        <ele>266</ele>
        <time>2017-06-06T03:04:54Z</time>
      </trkpt>
      <trkpt lat="44.59179" lon="1.19973">
        <ele>266</ele>
        <time>2017-06-06T03:06:54Z</time>
      </trkpt>
      <trkpt lat="44.59188" lon="1.19977">
        <ele>265</ele>
        <time>2017-06-06T03:08:54Z</time>
      </trkpt>
      <trkpt lat="44.59196" lon="1.19985">
        <ele>265</ele>
        <time>2017-06-06T03:10:54Z</time>
      </trkpt>
      <trkpt lat="44.59201" lon="1.19996">
        <ele>264</ele>
        <time>2017-06-06T03:12:54Z</time>
      </trkpt>
      <trkpt lat="44.59208" lon="1.20007">
        <ele>263</ele>
        <time>2017-06-06T03:14:54Z</time>
      </trkpt>
      <trkpt lat="44.59213" lon="1.20019">
        <ele>261</ele>
        <time>2017-06-06T03:16:54Z</time>
      </trkpt>
      <trkpt lat="44.59214" lon="1.20032">
        <ele>259</ele>
        <time>2017-06-06T03:18:54Z</time>
      </trkpt>
      <trkpt lat="44.59218" lon="1.20043">
        <ele>258</ele>
        <time>2017-06-06T03:20:54Z</time>
      </trkpt>
      <trkpt lat="44.59226" lon="1.20052">
        <ele>256</ele>
        <time>2017-06-06T03:22:54Z</time>
      </trkpt>
      <trkpt lat="44.59233" lon="1.20062">
        <ele>255</ele>
        <time>2017-06-06T03:24:54Z</time>
      </trkpt>
      <trkpt lat="44.59239" lon="1.20071">
        <ele>254</ele>
        <time>2017-06-06T03:26:54Z</time>
      </trkpt>
      <trkpt lat="44.59247" lon="1.20081">
        <ele>252</ele>
        <time>2017-06-06T03:28:54Z</time>
      </trkpt>
      <trkpt lat="44.59262" lon="1.20099">
        <ele>250</ele>
        <time>2017-06-06T03:30:54Z</time>
      </trkpt>
      <trkpt lat="44.59268" lon="1.20108">
        <ele>249</ele>
        <time>2017-06-06T03:32:54Z</time>
      </trkpt>
      <trkpt lat="44.59274" lon="1.2012">
        <ele>248</ele>
        <time>2017-06-06T03:34:54Z</time>
      </trkpt>
      <trkpt lat="44.59283" lon="1.20128">
        <ele>248</ele>
        <time>2017-06-06T03:36:54Z</time>
      </trkpt>
      <trkpt lat="44.5929" lon="1.20137">
        <ele>247</ele>
        <time>2017-06-06T03:38:54Z</time>
      </trkpt>
      <trkpt lat="44.59297" lon="1.20147">
        <ele>246</ele>
        <time>2017-06-06T03:40:54Z</time>
      </trkpt>
      <trkpt lat="44.59304" lon="1.20157">
        <ele>246</ele>
        <time>2017-06-06T03:42:54Z</time>
      </trkpt>
      <trkpt lat="44.59312" lon="1.20165">
        <ele>246</ele>
        <time>2017-06-06T03:44:54Z</time>
      </trkpt>
      <trkpt lat="44.5932" lon="1.2017">
        <ele>246</ele>
        <time>2017-06-06T03:46:54Z</time>
      </trkpt>
      <trkpt lat="44.59329" lon="1.20176">
        <ele>246</ele>
        <time>2017-06-06T03:48:54Z</time>
      </trkpt>
      <trkpt lat="44.59337" lon="1.2018">
        <ele>246</ele>
        <time>2017-06-06T03:50:54Z</time>
      </trkpt>
      <trkpt lat="44.59346" lon="1.20187">
        <ele>246</ele>
        <time>2017-06-06T03:52:54Z</time>
      </trkpt>
      <trkpt lat="44.59355" lon="1.20193">
        <ele>245</ele>
        <time>2017-06-06T03:54:54Z</time>
      </trkpt>
      <trkpt lat="44.59373" lon="1.20203">
        <ele>244</ele>
        <time>2017-06-06T03:56:54Z</time>
      </trkpt>
      <trkpt lat="44.59381" lon="1.20207">
        <ele>244</ele>
        <time>2017-06-06T03:58:54Z</time>
      </trkpt>
      <trkpt lat="44.5939" lon="1.20214">
        <ele>244</ele>
        <time>2017-06-06T04:00:54Z</time>
      </trkpt>
      <trkpt lat="44.594" lon="1.20219">
        <ele>243</ele>
        <time>2017-06-06T04:02:54Z</time>
      </trkpt>
      <trkpt lat="44.59409" lon="1.20222">
        <ele>243</ele>
        <time>2017-06-06T04:04:54Z</time>
      </trkpt>
      <trkpt lat="44.59432" lon="1.20245">
        <ele>241</ele>
        <time>2017-06-06T04:06:54Z</time>
      </trkpt>
      <trkpt lat="44.59439" lon="1.20254">
        <ele>240</ele>
        <time>2017-06-06T04:08:54Z</time>
      </trkpt>
      <trkpt lat="44.59451" lon="1.20274">
        <ele>238</ele>
        <time>2017-06-06T04:10:54Z</time>
      </trkpt>
      <trkpt lat="44.59459" lon="1.20283">
        <ele>238</ele>
        <time>2017-06-06T04:12:54Z</time>
      </trkpt>
      <trkpt lat="44.59463" lon="1.20296">
        <ele>237</ele>
        <time>2017-06-06T04:14:54Z</time>
      </trkpt>
      <trkpt lat="44.59469" lon="1.2031">
        <ele>236</ele>
        <time>2017-06-06T04:16:54Z</time>
      </trkpt>
      <trkpt lat="44.59486" lon="1.20327">
        <ele>234</ele>
        <time>2017-06-06T04:18:54Z</time>
      </trkpt>
      <trkpt lat="44.59492" lon="1.2034">
        <ele>233</ele>
        <time>2017-06-06T04:20:54Z</time>
      </trkpt>
      <trkpt lat="44.59506" lon="1.20352">
        <ele>231</ele>
        <time>2017-06-06T04:22:54Z</time>
      </trkpt>
      <trkpt lat="44.59523" lon="1.20359">
        <ele>230</ele>
        <time>2017-06-06T04:24:54Z</time>
      </trkpt>
      <trkpt lat="44.59534" lon="1.20364">
        <ele>229</ele>
        <time>2017-06-06T04:26:54Z</time>
      </trkpt>
      <trkpt lat="44.59541" lon="1.20372">
        <ele>228</ele>
        <time>2017-06-06T04:28:54Z</time>
      </trkpt>
      <trkpt lat="44.59542" lon="1.20385">
        <ele>227</ele>
        <time>2017-06-06T04:30:54Z</time>
      </trkpt>
      <trkpt lat="44.59549" lon="1.20401">
        <ele>226</ele>
        <time>2017-06-06T04:32:54Z</time>
      </trkpt>
      <trkpt lat="44.59552" lon="1.20415">
        <ele>225</ele>
        <time>2017-06-06T04:34:54Z</time>
      </trkpt>
      <trkpt lat="44.59555" lon="1.20427">
        <ele>225</ele>
        <time>2017-06-06T04:36:54Z</time>
      </trkpt>
      <trkpt lat="44.59558" lon="1.20439">
        <ele>225</ele>
        <time>2017-06-06T04:38:54Z</time>
      </trkpt>
      <trkpt lat="44.59564" lon="1.2045">
        <ele>225</ele>
        <time>2017-06-06T04:40:54Z</time>
      </trkpt>
      <trkpt lat="44.59568" lon="1.20462">
        <ele>224</ele>
        <time>2017-06-06T04:42:54Z</time>
      </trkpt>
      <trkpt lat="44.59574" lon="1.2047">
        <ele>225</ele>
        <time>2017-06-06T04:44:54Z</time>
      </trkpt>
      <trkpt lat="44.59581" lon="1.20478">
        <ele>225</ele>
        <time>2017-06-06T04:46:54Z</time>
      </trkpt>
      <trkpt lat="44.5959" lon="1.20482">
        <ele>225</ele>
        <time>2017-06-06T04:48:54Z</time>
      </trkpt>
      <trkpt lat="44.59581" lon="1.20481">
        <ele>225</ele>
        <time>2017-06-06T04:50:54Z</time>
      </trkpt>
      <trkpt lat="44.59577" lon="1.20493">
        <ele>225</ele>
        <time>2017-06-06T04:52:54Z</time>
      </trkpt>
      <trkpt lat="44.59572" lon="1.20504">
        <ele>225</ele>
        <time>2017-06-06T04:54:54Z</time>
      </trkpt>
      <trkpt lat="44.59566" lon="1.20513">
        <ele>225</ele>
        <time>2017-06-06T04:56:54Z</time>
      </trkpt>
      <trkpt lat="44.59556" lon="1.20522">
        <ele>224</ele>
        <time>2017-06-06T04:58:54Z</time>
      </trkpt>
      <trkpt lat="44.59547" lon="1.20524">
        <ele>224</ele>
        <time>2017-06-06T05:00:54Z</time>
      </trkpt>
      <trkpt lat="44.59538" lon="1.20528">
        <ele>223</ele>
        <time>2017-06-06T05:02:54Z</time>
      </trkpt>
      <trkpt lat="44.5953" lon="1.20523">
        <ele>223</ele>
        <time>2017-06-06T05:04:54Z</time>
      </trkpt>
      <trkpt lat="44.59521" lon="1.20528">
        <ele>222</ele>
        <time>2017-06-06T05:06:54Z</time>
      </trkpt>
      <trkpt lat="44.59511" lon="1.20527">
        <ele>221</ele>
        <time>2017-06-06T05:08:54Z</time>
      </trkpt>
      <trkpt lat="44.59501" lon="1.20525">
        <ele>221</ele>
        <time>2017-06-06T05:10:54Z</time>
      </trkpt>
      <trkpt lat="44.59491" lon="1.20527">
        <ele>221</ele>
        <time>2017-06-06T05:12:54Z</time>
      </trkpt>
      <trkpt lat="44.59472" lon="1.20528">
        <ele>220</ele>
        <time>2017-06-06T05:14:54Z</time>
      </trkpt>
      <trkpt lat="44.59462" lon="1.2053">
        <ele>220</ele>
        <time>2017-06-06T05:16:54Z</time>
      </trkpt>
      <trkpt lat="44.59452" lon="1.20533">
        <ele>220</ele>
        <time>2017-06-06T05:18:54Z</time>
      </trkpt>
      <trkpt lat="44.59443" lon="1.20532">
        <ele>220</ele>
        <time>2017-06-06T05:20:54Z</time>
      </trkpt>
      <trkpt lat="44.59433" lon="1.20534">
        <ele>220</ele>
        <time>2017-06-06T05:22:54Z</time>
      </trkpt>
      <trkpt lat="44.59423" lon="1.20533">
        <ele>220</ele>
        <time>2017-06-06T05:24:54Z</time>
      </trkpt>
      <trkpt lat="44.59413" lon="1.20539">
        <ele>219</ele>
        <time>2017-06-06T05:26:54Z</time>
      </trkpt>
      <trkpt lat="44.59405" lon="1.20545">
        <ele>219</ele>
        <time>2017-06-06T05:28:54Z</time>
      </trkpt>
      <trkpt lat="44.59388" lon="1.2056">
        <ele>219</ele>
        <time>2017-06-06T05:30:54Z</time>
      </trkpt>
      <trkpt lat="44.5938" lon="1.20567">
        <ele>219</ele>
        <time>2017-06-06T05:32:54Z</time>
      </trkpt>
      <trkpt lat="44.5937" lon="1.20573">
        <ele>219</ele>
        <time>2017-06-06T05:34:54Z</time>
      </trkpt>
      <trkpt lat="44.59362" lon="1.20579">
        <ele>219</ele>
        <time>2017-06-06T05:36:54Z</time>
      </trkpt>
      <trkpt lat="44.59354" lon="1.20584">
        <ele>219</ele>
        <time>2017-06-06T05:38:54Z</time>
      </trkpt>
      <trkpt lat="44.59345" lon="1.20592">
        <ele>219</ele>
        <time>2017-06-06T05:40:54Z</time>
      </trkpt>
      <trkpt lat="44.59337" lon="1.206">
        <ele>219</ele>
        <time>2017-06-06T05:42:54Z</time>
      </trkpt>
      <trkpt lat="44.5933" lon="1.20611">
        <ele>218</ele>
        <time>2017-06-06T05:44:54Z</time>
      </trkpt>
      <trkpt lat="44.59323" lon="1.20623">
        <ele>218</ele>
        <time>2017-06-06T05:46:54Z</time>
      </trkpt>
      <trkpt lat="44.59317" lon="1.20633">
        <ele>217</ele>
        <time>2017-06-06T05:48:54Z</time>
      </trkpt>
      <trkpt lat="44.59307" lon="1.20639">
        <ele>217</ele>
        <time>2017-06-06T05:50:54Z</time>
      </trkpt>
      <trkpt lat="44.59302" lon="1.20649">
        <ele>217</ele>
        <time>2017-06-06T05:52:54Z</time>
      </trkpt>
      <trkpt lat="44.59297" lon="1.20661">
        <ele>216</ele>
        <time>2017-06-06T05:54:54Z</time>
      </trkpt>
      <trkpt lat="44.5929" lon="1.20667">
        <ele>216</ele>
        <time>2017-06-06T05:56:54Z</time>
      </trkpt>
      <trkpt lat="44.59281" lon="1.20674">
        <ele>216</ele>
        <time>2017-06-06T05:58:54Z</time>
      </trkpt>
      <trkpt lat="44.59271" lon="1.20677">
        <ele>217</ele>
        <time>2017-06-06T06:00:54Z</time>
      </trkpt>
      <trkpt lat="44.59263" lon="1.20682">
        <ele>217</ele>
        <time>2017-06-06T06:02:54Z</time>
      </trkpt>
      <trkpt lat="44.59254" lon="1.20687">
        <ele>217</ele>
        <time>2017-06-06T06:04:54Z</time>
      </trkpt>
      <trkpt lat="44.59245" lon="1.2069">
        <ele>217</ele>
        <time>2017-06-06T06:06:54Z</time>
      </trkpt>
      <trkpt lat="44.59235" lon="1.20696">
        <ele>217</ele>
        <time>2017-06-06T06:08:54Z</time>
      </trkpt>
      <trkpt lat="44.59225" lon="1.20699">
        <ele>217</ele>
        <time>2017-06-06T06:10:54Z</time>
      </trkpt>
      <trkpt lat="44.59216" lon="1.20704">
        <ele>217</ele>
        <time>2017-06-06T06:12:54Z</time>
      </trkpt>
      <trkpt lat="44.59208" lon="1.20711">
        <ele>217</ele>
        <time>2017-06-06T06:14:54Z</time>
      </trkpt>
      <trkpt lat="44.59201" lon="1.2072">
        <ele>217</ele>
        <time>2017-06-06T06:16:54Z</time>
      </trkpt>
      <trkpt lat="44.59196" lon="1.20731">
        <ele>217</ele>
        <time>2017-06-06T06:18:54Z</time>
      </trkpt>
      <trkpt lat="44.59191" lon="1.20744">
        <ele>216</ele>
        <time>2017-06-06T06:20:54Z</time>
      </trkpt>
      <trkpt lat="44.59188" lon="1.20757">
        <ele>216</ele>
        <time>2017-06-06T06:22:54Z</time>
      </trkpt>
      <trkpt lat="44.59183" lon="1.20767">
        <ele>216</ele>
        <time>2017-06-06T06:24:54Z</time>
      </trkpt>
      <trkpt lat="44.59177" lon="1.20777">
        <ele>215</ele>
        <time>2017-06-06T06:26:54Z</time>
      </trkpt>
      <trkpt lat="44.5917" lon="1.20786">
        <ele>215</ele>
        <time>2017-06-06T06:28:54Z</time>
      </trkpt>
      <trkpt lat="44.59156" lon="1.20806">
        <ele>215</ele>
        <time>2017-06-06T06:30:54Z</time>
      </trkpt>
      <trkpt lat="44.59151" lon="1.20817">
        <ele>214</ele>
        <time>2017-06-06T06:32:54Z</time>
      </trkpt>
      <trkpt lat="44.59147" lon="1.20829">
        <ele>214</ele>
        <time>2017-06-06T06:34:54Z</time>
      </trkpt>
      <trkpt lat="44.5914" lon="1.20837">
        <ele>214</ele>
        <time>2017-06-06T06:36:54Z</time>
      </trkpt>
      <trkpt lat="44.59133" lon="1.20848">
        <ele>214</ele>
        <time>2017-06-06T06:38:54Z</time>
      </trkpt>
      <trkpt lat="44.59126" lon="1.20857">
        <ele>214</ele>
        <time>2017-06-06T06:40:54Z</time>
      </trkpt>
      <trkpt lat="44.59118" lon="1.20866">
        <ele>214</ele>
        <time>2017-06-06T06:42:54Z</time>
      </trkpt>
      <trkpt lat="44.59112" lon="1.20877">
        <ele>214</ele>
        <time>2017-06-06T06:44:54Z</time>
      </trkpt>
      <trkpt lat="44.59108" lon="1.20889">
        <ele>213</ele>
        <time>2017-06-06T06:46:54Z</time>
      </trkpt>
      <trkpt lat="44.59101" lon="1.209">
        <ele>212</ele>
        <time>2017-06-06T06:48:54Z</time>
      </trkpt>
      <trkpt lat="44.59094" lon="1.2091">
        <ele>212</ele>
        <time>2017-06-06T06:50:54Z</time>
      </trkpt>
      <trkpt lat="44.59088" lon="1.2092">
        <ele>212</ele>
        <time>2017-06-06T06:52:54Z</time>
      </trkpt>
      <trkpt lat="44.59082" lon="1.20931">
        <ele>211</ele>
        <time>2017-06-06T06:54:54Z</time>
      </trkpt>
      <trkpt lat="44.59078" lon="1.20943">
        <ele>211</ele>
        <time>2017-06-06T06:56:54Z</time>
      </trkpt>
      <trkpt lat="44.59071" lon="1.20953">
        <ele>211</ele>
        <time>2017-06-06T06:58:54Z</time>
      </trkpt>
      <trkpt lat="44.59064" lon="1.20962">
        <ele>210</ele>
        <time>2017-06-06T07:00:54Z</time>
      </trkpt>
      <trkpt lat="44.59057" lon="1.2097">
        <ele>210</ele>
        <time>2017-06-06T07:02:54Z</time>
      </trkpt>
      <trkpt lat="44.5905" lon="1.20982">
        <ele>209</ele>
        <time>2017-06-06T07:04:54Z</time>
      </trkpt>
      <trkpt lat="44.59037" lon="1.21">
        <ele>208</ele>
        <time>2017-06-06T07:06:54Z</time>
      </trkpt>
      <trkpt lat="44.59029" lon="1.21007">
        <ele>208</ele>
        <time>2017-06-06T07:08:54Z</time>
      </trkpt>
      <trkpt lat="44.59019" lon="1.21013">
        <ele>208</ele>
        <time>2017-06-06T07:10:54Z</time>
      </trkpt>
      <trkpt lat="44.5901" lon="1.21013">
        <ele>208</ele>
        <time>2017-06-06T07:12:54Z</time>
      </trkpt>
      <trkpt lat="44.59" lon="1.21014">
        <ele>208</ele>
        <time>2017-06-06T07:14:54Z</time>
      </trkpt>
      <trkpt lat="44.58991" lon="1.21012">
        <ele>208</ele>
        <time>2017-06-06T07:16:54Z</time>
      </trkpt>
      <trkpt lat="44.58982" lon="1.21008">
        <ele>208</ele>
        <time>2017-06-06T07:18:54Z</time>
      </trkpt>
      <trkpt lat="44.58974" lon="1.21003">
        <ele>208</ele>
        <time>2017-06-06T07:20:54Z</time>
      </trkpt>
      <trkpt lat="44.58965" lon="1.20998">
        <ele>208</ele>
        <time>2017-06-06T07:22:54Z</time>
      </trkpt>
      <trkpt lat="44.58956" lon="1.20994">
        <ele>208</ele>
        <time>2017-06-06T07:24:54Z</time>
      </trkpt>
      <trkpt lat="44.58947" lon="1.2099">
        <ele>208</ele>
        <time>2017-06-06T07:26:54Z</time>
      </trkpt>
      <trkpt lat="44.58938" lon="1.20981">
        <ele>208</ele>
        <time>2017-06-06T07:28:54Z</time>
      </trkpt>
      <trkpt lat="44.58929" lon="1.20974">
        <ele>209</ele>
        <time>2017-06-06T07:30:54Z</time>
      </trkpt>
      <trkpt lat="44.5892" lon="1.20977">
        <ele>208</ele>
        <time>2017-06-06T07:32:54Z</time>
      </trkpt>
      <trkpt lat="44.58911" lon="1.20981">
        <ele>208</ele>
        <time>2017-06-06T07:34:54Z</time>
      </trkpt>
      <trkpt lat="44.58903" lon="1.20986">
        <ele>208</ele>
        <time>2017-06-06T07:36:54Z</time>
      </trkpt>
      <trkpt lat="44.58899" lon="1.20999">
        <ele>207</ele>
        <time>2017-06-06T07:38:54Z</time>
      </trkpt>
      <trkpt lat="44.58897" lon="1.21012">
        <ele>207</ele>
        <time>2017-06-06T07:40:54Z</time>
      </trkpt>
      <trkpt lat="44.58892" lon="1.21023">
        <ele>207</ele>
        <time>2017-06-06T07:42:54Z</time>
      </trkpt>
      <trkpt lat="44.58889" lon="1.21038">
        <ele>206</ele>
        <time>2017-06-06T07:44:54Z</time>
      </trkpt>
      <trkpt lat="44.58884" lon="1.2105">
        <ele>205</ele>
        <time>2017-06-06T07:46:54Z</time>
      </trkpt>
      <trkpt lat="44.58881" lon="1.21062">
        <ele>205</ele>
        <time>2017-06-06T07:48:54Z</time>
      </trkpt>
      <trkpt lat="44.58877" lon="1.21074">
        <ele>204</ele>
        <time>2017-06-06T07:50:54Z</time>
      </trkpt>
      <trkpt lat="44.58867" lon="1.21072">
        <ele>204</ele>
        <time>2017-06-06T07:52:54Z</time>
      </trkpt>
      <trkpt lat="44.58857" lon="1.21073">
        <ele>205</ele>
        <time>2017-06-06T07:54:54Z</time>
      </trkpt>
      <trkpt lat="44.58848" lon="1.21077">
        <ele>205</ele>
        <time>2017-06-06T07:56:54Z</time>
      </trkpt>
      <trkpt lat="44.5884" lon="1.21082">
        <ele>205</ele>
        <time>2017-06-06T07:58:54Z</time>
      </trkpt>
      <trkpt lat="44.58833" lon="1.21091">
        <ele>205</ele>
        <time>2017-06-06T08:00:54Z</time>
      </trkpt>
      <trkpt lat="44.58821" lon="1.21112">
        <ele>207</ele>
        <time>2017-06-06T08:02:54Z</time>
      </trkpt>
      <trkpt lat="44.58817" lon="1.21123">
        <ele>208</ele>
        <time>2017-06-06T08:04:54Z</time>
      </trkpt>
      <trkpt lat="44.58811" lon="1.21135">
        <ele>208</ele>
        <time>2017-06-06T08:06:54Z</time>
      </trkpt>
      <trkpt lat="44.58793" lon="1.21167">
        <ele>207</ele>
        <time>2017-06-06T08:08:54Z</time>
      </trkpt>
      <trkpt lat="44.58787" lon="1.21178">
        <ele>208</ele>
        <time>2017-06-06T08:10:54Z</time>
      </trkpt>
      <trkpt lat="44.58781" lon="1.21188">
        <ele>208</ele>
        <time>2017-06-06T08:12:54Z</time>
      </trkpt>
      <trkpt lat="44.58774" lon="1.21197">
        <ele>208</ele>
        <time>2017-06-06T08:14:54Z</time>
      </trkpt>
      <trkpt lat="44.58765" lon="1.21203">
        <ele>207</ele>
        <time>2017-06-06T08:16:54Z</time>
      </trkpt>
      <trkpt lat="44.58757" lon="1.21209">
        <ele>206</ele>
        <time>2017-06-06T08:18:54Z</time>
      </trkpt>
      <trkpt lat="44.58749" lon="1.21215">
        <ele>205</ele>
        <time>2017-06-06T08:20:54Z</time>
      </trkpt>
      <trkpt lat="44.5874" lon="1.21224">
        <ele>205</ele>
        <time>2017-06-06T08:22:54Z</time>
      </trkpt>
      <trkpt lat="44.58734" lon="1.21233">
        <ele>204</ele>
        <time>2017-06-06T08:24:54Z</time>
      </trkpt>
      <trkpt lat="44.58726" lon="1.21242">
        <ele>204</ele>
        <time>2017-06-06T08:26:54Z</time>
      </trkpt>
      <trkpt lat="44.5872" lon="1.21253">
        <ele>203</ele>
        <time>2017-06-06T08:28:54Z</time>
      </trkpt>
      <trkpt lat="44.58715" lon="1.21264">
        <ele>204</ele>
        <time>2017-06-06T08:30:54Z</time>
      </trkpt>
      <trkpt lat="44.58711" lon="1.21276">
        <ele>204</ele>
        <time>2017-06-06T08:32:54Z</time>
      </trkpt>
      <trkpt lat="44.58706" lon="1.21288">
        <ele>203</ele>
        <time>2017-06-06T08:34:54Z</time>
      </trkpt>
      <trkpt lat="44.58702" lon="1.213">
        <ele>203</ele>
        <time>2017-06-06T08:36:54Z</time>
      </trkpt>
      <trkpt lat="44.58698" lon="1.21312">
        <ele>203</ele>
        <time>2017-06-06T08:38:54Z</time>
      </trkpt>
      <trkpt lat="44.58694" lon="1.21337">
        <ele>202</ele>
        <time>2017-06-06T08:40:54Z</time>
      </trkpt>
      <trkpt lat="44.58692" lon="1.21351">
        <ele>202</ele>
        <time>2017-06-06T08:42:54Z</time>
      </trkpt>
      <trkpt lat="44.5869" lon="1.21363">
        <ele>201</ele>
        <time>2017-06-06T08:44:54Z</time>
      </trkpt>
      <trkpt lat="44.5869" lon="1.21376">
        <ele>201</ele>
        <time>2017-06-06T08:46:54Z</time>
      </trkpt>
      <trkpt lat="44.58688" lon="1.21389">
        <ele>201</ele>
        <time>2017-06-06T08:48:54Z</time>
      </trkpt>
      <trkpt lat="44.58678" lon="1.21393">
        <ele>199</ele>
        <time>2017-06-06T08:50:54Z</time>
      </trkpt>
      <trkpt lat="44.58669" lon="1.21392">
        <ele>197</ele>
        <time>2017-06-06T08:52:54Z</time>
      </trkpt>
      <trkpt lat="44.5866" lon="1.21394">
        <ele>197</ele>
        <time>2017-06-06T08:54:54Z</time>
      </trkpt>
      <trkpt lat="44.5865" lon="1.21393">
        <ele>196</ele>
        <time>2017-06-06T08:56:54Z</time>
      </trkpt>
      <trkpt lat="44.58641" lon="1.21387">
        <ele>196</ele>
        <time>2017-06-06T08:58:54Z</time>
      </trkpt>
      <trkpt lat="44.58632" lon="1.21384">
        <ele>196</ele>
        <time>2017-06-06T09:00:54Z</time>
      </trkpt>
      <trkpt lat="44.58623" lon="1.21379">
        <ele>196</ele>
        <time>2017-06-06T09:02:54Z</time>
      </trkpt>
      <trkpt lat="44.58614" lon="1.21379">
        <ele>196</ele>
        <time>2017-06-06T09:04:54Z</time>
      </trkpt>
      <trkpt lat="44.58605" lon="1.21377">
        <ele>196</ele>
        <time>2017-06-06T09:06:54Z</time>
      </trkpt>
      <trkpt lat="44.58596" lon="1.21371">
        <ele>196</ele>
        <time>2017-06-06T09:08:54Z</time>
      </trkpt>
      <trkpt lat="44.5859" lon="1.2136">
        <ele>197</ele>
        <time>2017-06-06T09:10:54Z</time>
      </trkpt>
      <trkpt lat="44.58583" lon="1.21352">
        <ele>197</ele>
        <time>2017-06-06T09:12:54Z</time>
      </trkpt>
      <trkpt lat="44.58574" lon="1.21348">
        <ele>196</ele>
        <time>2017-06-06T09:14:54Z</time>
      </trkpt>
      <trkpt lat="44.58565" lon="1.21341">
        <ele>196</ele>
        <time>2017-06-06T09:16:54Z</time>
      </trkpt>
      <trkpt lat="44.58557" lon="1.21334">
        <ele>195</ele>
        <time>2017-06-06T09:18:54Z</time>
      </trkpt>
      <trkpt lat="44.58548" lon="1.21329">
        <ele>194</ele>
        <time>2017-06-06T09:20:54Z</time>
      </trkpt>
      <trkpt lat="44.58538" lon="1.21326">
        <ele>193</ele>
        <time>2017-06-06T09:22:54Z</time>
      </trkpt>
      <trkpt lat="44.58528" lon="1.21322">
        <ele>193</ele>
        <time>2017-06-06T09:24:54Z</time>
      </trkpt>
      <trkpt lat="44.5852" lon="1.21316">
        <ele>193</ele>
        <time>2017-06-06T09:26:54Z</time>
      </trkpt>
      <trkpt lat="44.58514" lon="1.21304">
        <ele>193</ele>
        <time>2017-06-06T09:28:54Z</time>
      </trkpt>
      <trkpt lat="44.58505" lon="1.21298">
        <ele>193</ele>
        <time>2017-06-06T09:30:54Z</time>
      </trkpt>
      <trkpt lat="44.58498" lon="1.2129">
        <ele>194</ele>
        <time>2017-06-06T09:32:54Z</time>
      </trkpt>
      <trkpt lat="44.5849" lon="1.21282">
        <ele>195</ele>
        <time>2017-06-06T09:34:54Z</time>
      </trkpt>
      <trkpt lat="44.58485" lon="1.21271">
        <ele>195</ele>
        <time>2017-06-06T09:36:54Z</time>
      </trkpt>
      <trkpt lat="44.5848" lon="1.2126">
        <ele>196</ele>
        <time>2017-06-06T09:38:54Z</time>
      </trkpt>
      <trkpt lat="44.58473" lon="1.21249">
        <ele>196</ele>
        <time>2017-06-06T09:40:54Z</time>
      </trkpt>
      <trkpt lat="44.58467" lon="1.2124">
        <ele>197</ele>
        <time>2017-06-06T09:42:54Z</time>
      </trkpt>
      <trkpt lat="44.5846" lon="1.21232">
        <ele>198</ele>
        <time>2017-06-06T09:44:54Z</time>
      </trkpt>
      <trkpt lat="44.58451" lon="1.21228">
        <ele>198</ele>
        <time>2017-06-06T09:46:54Z</time>
      </trkpt>
      <trkpt lat="44.58441" lon="1.21226">
        <ele>197</ele>
        <time>2017-06-06T09:48:54Z</time>
      </trkpt>
      <trkpt lat="44.58432" lon="1.21228">
        <ele>195</ele>
        <time>2017-06-06T09:50:54Z</time>
      </trkpt>
      <trkpt lat="44.58423" lon="1.21226">
        <ele>194</ele>
        <time>2017-06-06T09:52:54Z</time>
      </trkpt>
      <trkpt lat="44.58414" lon="1.21221">
        <ele>194</ele>
        <time>2017-06-06T09:54:54Z</time>
      </trkpt>
      <trkpt lat="44.58405" lon="1.21222">
        <ele>194</ele>
        <time>2017-06-06T09:56:54Z</time>
      </trkpt>
      <trkpt lat="44.58396" lon="1.21216">
        <ele>194</ele>
        <time>2017-06-06T09:58:54Z</time>
      </trkpt>
      <trkpt lat="44.58388" lon="1.2121">
        <ele>194</ele>
        <time>2017-06-06T10:00:54Z</time>
      </trkpt>
      <trkpt lat="44.58382" lon="1.21201">
        <ele>195</ele>
        <time>2017-06-06T10:02:54Z</time>
      </trkpt>
      <trkpt lat="44.58371" lon="1.21202">
        <ele>194</ele>
        <time>2017-06-06T10:04:54Z</time>
      </trkpt>
      <trkpt lat="44.5836" lon="1.212">
        <ele>193</ele>
        <time>2017-06-06T10:06:54Z</time>
      </trkpt>
      <trkpt lat="44.58349" lon="1.212">
        <ele>193</ele>
        <time>2017-06-06T10:08:54Z</time>
      </trkpt>
      <trkpt lat="44.58339" lon="1.21201">
        <ele>192</ele>
        <time>2017-06-06T10:10:54Z</time>
      </trkpt>
      <trkpt lat="44.5831" lon="1.21197">
        <ele>191</ele>
        <time>2017-06-06T10:12:54Z</time>
      </trkpt>
      <trkpt lat="44.583" lon="1.2119">
        <ele>191</ele>
        <time>2017-06-06T10:14:54Z</time>
      </trkpt>
      <trkpt lat="44.58291" lon="1.21191">
        <ele>191</ele>
        <time>2017-06-06T10:16:54Z</time>
      </trkpt>
      <trkpt lat="44.58282" lon="1.21191">
        <ele>190</ele>
        <time>2017-06-06T10:18:54Z</time>
      </trkpt>
      <trkpt lat="44.58277" lon="1.21181">
        <ele>191</ele>
        <time>2017-06-06T10:20:54Z</time>
      </trkpt>
      <trkpt lat="44.58269" lon="1.21174">
        <ele>191</ele>
        <time>2017-06-06T10:22:54Z</time>
      </trkpt>
      <trkpt lat="44.58264" lon="1.21163">
        <ele>192</ele>
        <time>2017-06-06T10:24:54Z</time>
      </trkpt>
      <trkpt lat="44.58257" lon="1.21171">
        <ele>191</ele>
        <time>2017-06-06T10:26:54Z</time>
      </trkpt>
      <trkpt lat="44.5825" lon="1.21181">
        <ele>190</ele>
        <time>2017-06-06T10:28:54Z</time>
      </trkpt>
      <trkpt lat="44.58242" lon="1.21188">
        <ele>191</ele>
        <time>2017-06-06T10:30:54Z</time>
      </trkpt>
      <trkpt lat="44.58236" lon="1.21199">
        <ele>191</ele>
        <time>2017-06-06T10:32:54Z</time>
      </trkpt>
      <trkpt lat="44.58231" lon="1.2121">
        <ele>190</ele>
        <time>2017-06-06T10:34:54Z</time>
      </trkpt>
      <trkpt lat="44.58226" lon="1.21221">
        <ele>190</ele>
        <time>2017-06-06T10:36:54Z</time>
      </trkpt>
      <trkpt lat="44.58223" lon="1.21234">
        <ele>189</ele>
        <time>2017-06-06T10:38:54Z</time>
      </trkpt>
      <trkpt lat="44.58217" lon="1.21259">
        <ele>189</ele>
        <time>2017-06-06T10:40:54Z</time>
      </trkpt>
      <trkpt lat="44.58211" lon="1.21271">
        <ele>190</ele>
        <time>2017-06-06T10:42:54Z</time>
      </trkpt>
      <trkpt lat="44.58204" lon="1.2128">
        <ele>191</ele>
        <time>2017-06-06T10:44:54Z</time>
      </trkpt>
      <trkpt lat="44.58197" lon="1.21289">
        <ele>191</ele>
        <time>2017-06-06T10:46:54Z</time>
      </trkpt>
      <trkpt lat="44.58189" lon="1.21296">
        <ele>191</ele>
        <time>2017-06-06T10:48:54Z</time>
      </trkpt>
      <trkpt lat="44.58179" lon="1.21301">
        <ele>190</ele>
        <time>2017-06-06T10:50:54Z</time>
      </trkpt>
      <trkpt lat="44.5817" lon="1.21307">
        <ele>190</ele>
        <time>2017-06-06T10:52:54Z</time>
      </trkpt>
      <trkpt lat="44.58162" lon="1.21313">
        <ele>189</ele>
        <time>2017-06-06T10:54:54Z</time>
      </trkpt>
      <trkpt lat="44.58153" lon="1.21319">
        <ele>189</ele>
        <time>2017-06-06T10:56:54Z</time>
      </trkpt>
      <trkpt lat="44.58135" lon="1.2133">
        <ele>187</ele>
        <time>2017-06-06T10:58:54Z</time>
      </trkpt>
      <trkpt lat="44.58125" lon="1.21332">
        <ele>186</ele>
        <time>2017-06-06T11:00:54Z</time>
      </trkpt>
      <trkpt lat="44.58116" lon="1.21336">
        <ele>186</ele>
        <time>2017-06-06T11:02:54Z</time>
      </trkpt>
      <trkpt lat="44.58107" lon="1.21342">
        <ele>186</ele>
        <time>2017-06-06T11:04:54Z</time>
      </trkpt>
      <trkpt lat="44.58098" lon="1.21346">
        <ele>185</ele>
        <time>2017-06-06T11:06:54Z</time>
      </trkpt>
      <trkpt lat="44.58089" lon="1.21348">
        <ele>184</ele>
        <time>2017-06-06T11:08:54Z</time>
      </trkpt>
      <trkpt lat="44.58069" lon="1.21351">
        <ele>186</ele>
        <time>2017-06-06T11:10:54Z</time>
      </trkpt>
      <trkpt lat="44.5806" lon="1.21352">
        <ele>187</ele>
        <time>2017-06-06T11:12:54Z</time>
      </trkpt>
      <trkpt lat="44.5805" lon="1.21357">
        <ele>188</ele>
        <time>2017-06-06T11:14:54Z</time>
      </trkpt>
      <trkpt lat="44.5804" lon="1.21358">
        <ele>189</ele>
        <time>2017-06-06T11:16:54Z</time>
      </trkpt>
      <trkpt lat="44.5803" lon="1.21362">
        <ele>190</ele>
        <time>2017-06-06T11:18:54Z</time>
      </trkpt>
      <trkpt lat="44.58022" lon="1.21369">
        <ele>191</ele>
        <time>2017-06-06T11:20:54Z</time>
      </trkpt>
      <trkpt lat="44.58015" lon="1.21377">
        <ele>191</ele>
        <time>2017-06-06T11:22:54Z</time>
      </trkpt>
      <trkpt lat="44.58009" lon="1.21403">
        <ele>189</ele>
        <time>2017-06-06T11:24:54Z</time>
      </trkpt>
      <trkpt lat="44.58007" lon="1.21418">
        <ele>189</ele>
        <time>2017-06-06T11:26:54Z</time>
      </trkpt>
      <trkpt lat="44.58011" lon="1.2143">
        <ele>188</ele>
        <time>2017-06-06T11:28:54Z</time>
      </trkpt>
      <trkpt lat="44.58014" lon="1.21443">
        <ele>188</ele>
        <time>2017-06-06T11:30:54Z</time>
      </trkpt>
      <trkpt lat="44.58019" lon="1.21455">
        <ele>188</ele>
        <time>2017-06-06T11:32:54Z</time>
      </trkpt>
      <trkpt lat="44.58025" lon="1.21466">
        <ele>187</ele>
        <time>2017-06-06T11:34:54Z</time>
      </trkpt>
      <trkpt lat="44.58031" lon="1.21477">
        <ele>187</ele>
        <time>2017-06-06T11:36:54Z</time>
      </trkpt>
      <trkpt lat="44.58037" lon="1.21488">
        <ele>187</ele>
        <time>2017-06-06T11:38:54Z</time>
      </trkpt>
      <trkpt lat="44.58041" lon="1.215">
        <ele>187</ele>
        <time>2017-06-06T11:40:54Z</time>
      </trkpt>
      <trkpt lat="44.58046" lon="1.21511">
        <ele>187</ele>
        <time>2017-06-06T11:42:54Z</time>
      </trkpt>
      <trkpt lat="44.58048" lon="1.21524">
        <ele>186</ele>
        <time>2017-06-06T11:44:54Z</time>
      </trkpt>
      <trkpt lat="44.58045" lon="1.21537">
        <ele>185</ele>
        <time>2017-06-06T11:46:54Z</time>
      </trkpt>
      <trkpt lat="44.5804" lon="1.21548">
        <ele>185</ele>
        <time>2017-06-06T11:48:54Z</time>
      </trkpt>
      <trkpt lat="44.58032" lon="1.21557">
        <ele>184</ele>
        <time>2017-06-06T11:50:54Z</time>
      </trkpt>
      <trkpt lat="44.58026" lon="1.21567">
        <ele>183</ele>
        <time>2017-06-06T11:52:54Z</time>
      </trkpt>
      <trkpt lat="44.5802" lon="1.21577">
        <ele>182</ele>
        <time>2017-06-06T11:54:54Z</time>
      </trkpt>
      <trkpt lat="44.58012" lon="1.21585">
        <ele>181</ele>
        <time>2017-06-06T11:56:54Z</time>
      </trkpt>
      <trkpt lat="44.58006" lon="1.21595">
        <ele>181</ele>
        <time>2017-06-06T11:58:54Z</time>
      </trkpt>
      <trkpt lat="44.58" lon="1.21605">
        <ele>180</ele>
        <time>2017-06-06T12:00:54Z</time>
      </trkpt>
      <trkpt lat="44.57993" lon="1.21614">
        <ele>181</ele>
        <time>2017-06-06T12:02:54Z</time>
      </trkpt>
      <trkpt lat="44.57986" lon="1.21623">
        <ele>182</ele>
        <time>2017-06-06T12:04:54Z</time>
      </trkpt>
      <trkpt lat="44.57979" lon="1.21633">
        <ele>183</ele>
        <time>2017-06-06T12:06:54Z</time>
      </trkpt>
      <trkpt lat="44.57975" lon="1.21644">
        <ele>184</ele>
        <time>2017-06-06T12:08:54Z</time>
      </trkpt>
      <trkpt lat="44.5797" lon="1.21656">
        <ele>184</ele>
        <time>2017-06-06T12:10:54Z</time>
      </trkpt>
      <trkpt lat="44.57963" lon="1.21664">
        <ele>185</ele>
        <time>2017-06-06T12:12:54Z</time>
      </trkpt>
      <trkpt lat="44.57956" lon="1.21673">
        <ele>186</ele>
        <time>2017-06-06T12:14:54Z</time>
      </trkpt>
      <trkpt lat="44.57948" lon="1.21678">
        <ele>188</ele>
        <time>2017-06-06T12:16:54Z</time>
      </trkpt>
      <trkpt lat="44.57929" lon="1.21681">
        <ele>192</ele>
        <time>2017-06-06T12:18:54Z</time>
      </trkpt>
      <trkpt lat="44.57913" lon="1.21693">
        <ele>195</ele>
        <time>2017-06-06T12:20:54Z</time>
      </trkpt>
      <trkpt lat="44.57904" lon="1.21697">
        <ele>197</ele>
        <time>2017-06-06T12:22:54Z</time>
      </trkpt>
      <trkpt lat="44.57895" lon="1.217">
        <ele>198</ele>
        <time>2017-06-06T12:24:54Z</time>
      </trkpt>
      <trkpt lat="44.57886" lon="1.21702">
        <ele>200</ele>
        <time>2017-06-06T12:26:54Z</time>
      </trkpt>
      <trkpt lat="44.57876" lon="1.21702">
        <ele>202</ele>
        <time>2017-06-06T12:28:54Z</time>
      </trkpt>
      <trkpt lat="44.57869" lon="1.21694">
        <ele>204</ele>
        <time>2017-06-06T12:30:54Z</time>
      </trkpt>
      <trkpt lat="44.57865" lon="1.21681">
        <ele>205</ele>
        <time>2017-06-06T12:32:54Z</time>
      </trkpt>
      <trkpt lat="44.57863" lon="1.21669">
        <ele>206</ele>
        <time>2017-06-06T12:34:54Z</time>
      </trkpt>
      <trkpt lat="44.57861" lon="1.21656">
        <ele>207</ele>
        <time>2017-06-06T12:36:54Z</time>
      </trkpt>
      <trkpt lat="44.5786" lon="1.21629">
        <ele>210</ele>
        <time>2017-06-06T12:38:54Z</time>
      </trkpt>
      <trkpt lat="44.57858" lon="1.21617">
        <ele>211</ele>
        <time>2017-06-06T12:40:54Z</time>
      </trkpt>
      <trkpt lat="44.57849" lon="1.21613">
        <ele>213</ele>
        <time>2017-06-06T12:42:54Z</time>
      </trkpt>
      <trkpt lat="44.5784" lon="1.21609">
        <ele>214</ele>
        <time>2017-06-06T12:44:54Z</time>
      </trkpt>
      <trkpt lat="44.57836" lon="1.21597">
        <ele>216</ele>
        <time>2017-06-06T12:46:54Z</time>
      </trkpt>
      <trkpt lat="44.5784" lon="1.21585">
        <ele>216</ele>
        <time>2017-06-06T12:48:54Z</time>
      </trkpt>
      <trkpt lat="44.57843" lon="1.21559">
        <ele>216</ele>
        <time>2017-06-06T12:50:54Z</time>
      </trkpt>
      <trkpt lat="44.57846" lon="1.21547">
        <ele>216</ele>
        <time>2017-06-06T12:52:54Z</time>
      </trkpt>
      <trkpt lat="44.57847" lon="1.21534">
        <ele>216</ele>
        <time>2017-06-06T12:54:54Z</time>
      </trkpt>
      <trkpt lat="44.57848" lon="1.21521">
        <ele>216</ele>
        <time>2017-06-06T12:56:54Z</time>
      </trkpt>
      <trkpt lat="44.57847" lon="1.21507">
        <ele>217</ele>
        <time>2017-06-06T12:58:54Z</time>
      </trkpt>
      <trkpt lat="44.5785" lon="1.21494">
        <ele>217</ele>
        <time>2017-06-06T13:00:54Z</time>
      </trkpt>
      <trkpt lat="44.57851" lon="1.21481">
        <ele>217</ele>
        <time>2017-06-06T13:02:54Z</time>
      </trkpt>
      <trkpt lat="44.57854" lon="1.21468">
        <ele>217</ele>
        <time>2017-06-06T13:04:54Z</time>
      </trkpt>
      <trkpt lat="44.57853" lon="1.21455">
        <ele>218</ele>
        <time>2017-06-06T13:06:54Z</time>
      </trkpt>
      <trkpt lat="44.57854" lon="1.21442">
        <ele>218</ele>
        <time>2017-06-06T13:08:54Z</time>
      </trkpt>
      <trkpt lat="44.57854" lon="1.21416">
        <ele>219</ele>
        <time>2017-06-06T13:10:54Z</time>
      </trkpt>
      <trkpt lat="44.57854" lon="1.21403">
        <ele>220</ele>
        <time>2017-06-06T13:12:54Z</time>
      </trkpt>
      <trkpt lat="44.57851" lon="1.21389">
        <ele>221</ele>
        <time>2017-06-06T13:14:54Z</time>
      </trkpt>
      <trkpt lat="44.5785" lon="1.21375">
        <ele>223</ele>
        <time>2017-06-06T13:16:54Z</time>
      </trkpt>
      <trkpt lat="44.57849" lon="1.21362">
        <ele>224</ele>
        <time>2017-06-06T13:18:54Z</time>
      </trkpt>
      <trkpt lat="44.57849" lon="1.21349">
        <ele>225</ele>
        <time>2017-06-06T13:20:54Z</time>
      </trkpt>
      <trkpt lat="44.57848" lon="1.21335">
        <ele>226</ele>
        <time>2017-06-06T13:22:54Z</time>
      </trkpt>
      <trkpt lat="44.57849" lon="1.21322">
        <ele>227</ele>
        <time>2017-06-06T13:24:54Z</time>
      </trkpt>
      <trkpt lat="44.57859" lon="1.21321">
        <ele>227</ele>
        <time>2017-06-06T13:26:54Z</time>
      </trkpt>
      <trkpt lat="44.57855" lon="1.2131">
        <ele>228</ele>
        <time>2017-06-06T13:28:54Z</time>
      </trkpt>
      <trkpt lat="44.57855" lon="1.21297">
        <ele>230</ele>
        <time>2017-06-06T13:30:54Z</time>
      </trkpt>
      <trkpt lat="44.57856" lon="1.21282">
        <ele>231</ele>
        <time>2017-06-06T13:32:54Z</time>
      </trkpt>
      <trkpt lat="44.57854" lon="1.21269">
        <ele>233</ele>
        <time>2017-06-06T13:34:54Z</time>
      </trkpt>
      <trkpt lat="44.57853" lon="1.21255">
        <ele>234</ele>
        <time>2017-06-06T13:36:54Z</time>
      </trkpt>
      <trkpt lat="44.57853" lon="1.21241">
        <ele>236</ele>
        <time>2017-06-06T13:38:54Z</time>
      </trkpt>
      <trkpt lat="44.57854" lon="1.21228">
        <ele>237</ele>
        <time>2017-06-06T13:40:54Z</time>
      </trkpt>
      <trkpt lat="44.57855" lon="1.21215">
        <ele>238</ele>
        <time>2017-06-06T13:42:54Z</time>
      </trkpt>
      <trkpt lat="44.57856" lon="1.21202">
        <ele>240</ele>
        <time>2017-06-06T13:44:54Z</time>
      </trkpt>
      <trkpt lat="44.57856" lon="1.21188">
        <ele>241</ele>
        <time>2017-06-06T13:46:54Z</time>
      </trkpt>
      <trkpt lat="44.57857" lon="1.21175">
        <ele>242</ele>
        <time>2017-06-06T13:48:54Z</time>
      </trkpt>
      <trkpt lat="44.5786" lon="1.21162">
        <ele>243</ele>
        <time>2017-06-06T13:50:54Z</time>
      </trkpt>
      <trkpt lat="44.57861" lon="1.21149">
        <ele>244</ele>
        <time>2017-06-06T13:52:54Z</time>
      </trkpt>
      <trkpt lat="44.57861" lon="1.21135">
        <ele>245</ele>
        <time>2017-06-06T13:54:54Z</time>
      </trkpt>
      <trkpt lat="44.57864" lon="1.21123">
        <ele>245</ele>
        <time>2017-06-06T13:56:54Z</time>
      </trkpt>
      <trkpt lat="44.57864" lon="1.21109">
        <ele>246</ele>
        <time>2017-06-06T13:58:54Z</time>
      </trkpt>
      <trkpt lat="44.57869" lon="1.21084">
        <ele>247</ele>
        <time>2017-06-06T14:00:54Z</time>
      </trkpt>
      <trkpt lat="44.57869" lon="1.2107">
        <ele>248</ele>
        <time>2017-06-06T14:02:54Z</time>
      </trkpt>
      <trkpt lat="44.57865" lon="1.21057">
        <ele>249</ele>
        <time>2017-06-06T14:04:54Z</time>
      </trkpt>
      <trkpt lat="44.57857" lon="1.21018">
        <ele>252</ele>
        <time>2017-06-06T14:06:54Z</time>
      </trkpt>
      <trkpt lat="44.57853" lon="1.21005">
        <ele>253</ele>
        <time>2017-06-06T14:08:54Z</time>
      </trkpt>
      <trkpt lat="44.57848" lon="1.20993">
        <ele>253</ele>
        <time>2017-06-06T14:10:54Z</time>
      </trkpt>
      <trkpt lat="44.57846" lon="1.2098">
        <ele>252</ele>
        <time>2017-06-06T14:12:54Z</time>
      </trkpt>
      <trkpt lat="44.5785" lon="1.20968">
        <ele>252</ele>
        <time>2017-06-06T14:14:54Z</time>
      </trkpt>
      <trkpt lat="44.57856" lon="1.20958">
        <ele>252</ele>
        <time>2017-06-06T14:16:54Z</time>
      </trkpt>
      <trkpt lat="44.57863" lon="1.20949">
        <ele>252</ele>
        <time>2017-06-06T14:18:54Z</time>
      </trkpt>
      <trkpt lat="44.57869" lon="1.20939">
        <ele>252</ele>
        <time>2017-06-06T14:20:54Z</time>
      </trkpt>
      <trkpt lat="44.57884" lon="1.20922">
        <ele>254</ele>
        <time>2017-06-06T14:22:54Z</time>
      </trkpt>
      <trkpt lat="44.57898" lon="1.20902">
        <ele>256</ele>
        <time>2017-06-06T14:24:54Z</time>
      </trkpt>
      <trkpt lat="44.57902" lon="1.20891">
        <ele>256</ele>
        <time>2017-06-06T14:26:54Z</time>
      </trkpt>
      <trkpt lat="44.57904" lon="1.20878">
        <ele>256</ele>
        <time>2017-06-06T14:28:54Z</time>
      </trkpt>
      <trkpt lat="44.57912" lon="1.2087">
        <ele>257</ele>
        <time>2017-06-06T14:30:54Z</time>
      </trkpt>
      <trkpt lat="44.57917" lon="1.20859">
        <ele>257</ele>
        <time>2017-06-06T14:32:54Z</time>
      </trkpt>
      <trkpt lat="44.57924" lon="1.20849">
        <ele>257</ele>
        <time>2017-06-06T14:34:54Z</time>
      </trkpt>
      <trkpt lat="44.5793" lon="1.20839">
        <ele>258</ele>
        <time>2017-06-06T14:36:54Z</time>
      </trkpt>
      <trkpt lat="44.57936" lon="1.20829">
        <ele>258</ele>
        <time>2017-06-06T14:38:54Z</time>
      </trkpt>
      <trkpt lat="44.57944" lon="1.2082">
        <ele>258</ele>
        <time>2017-06-06T14:40:54Z</time>
      </trkpt>
      <trkpt lat="44.57952" lon="1.20812">
        <ele>259</ele>
        <time>2017-06-06T14:42:54Z</time>
      </trkpt>
      <trkpt lat="44.57961" lon="1.20806">
        <ele>260</ele>
        <time>2017-06-06T14:44:54Z</time>
      </trkpt>
      <trkpt lat="44.5797" lon="1.20801">
        <ele>261</ele>
        <time>2017-06-06T14:46:54Z</time>
      </trkpt>
      <trkpt lat="44.57979" lon="1.20799">
        <ele>262</ele>
        <time>2017-06-06T14:48:54Z</time>
      </trkpt>
      <trkpt lat="44.57983" lon="1.20788">
        <ele>262</ele>
        <time>2017-06-06T14:50:54Z</time>
      </trkpt>
      <trkpt lat="44.57983" lon="1.20774">
        <ele>262</ele>
        <time>2017-06-06T14:52:54Z</time>
      </trkpt>
      <trkpt lat="44.57979" lon="1.20762">
        <ele>261</ele>
        <time>2017-06-06T14:54:54Z</time>
      </trkpt>
      <trkpt lat="44.57975" lon="1.2075">
        <ele>260</ele>
        <time>2017-06-06T14:56:54Z</time>
      </trkpt>
      <trkpt lat="44.57971" lon="1.20738">
        <ele>259</ele>
        <time>2017-06-06T14:58:54Z</time>
      </trkpt>
      <trkpt lat="44.5797" lon="1.20725">
        <ele>258</ele>
        <time>2017-06-06T15:00:54Z</time>
      </trkpt>
      <trkpt lat="44.57961" lon="1.20701">
        <ele>256</ele>
        <time>2017-06-06T15:02:54Z</time>
      </trkpt>
      <trkpt lat="44.57961" lon="1.20688">
        <ele>256</ele>
        <time>2017-06-06T15:04:54Z</time>
      </trkpt>
      <trkpt lat="44.57965" lon="1.20676">
        <ele>256</ele>
        <time>2017-06-06T15:06:54Z</time>
      </trkpt>
      <trkpt lat="44.57973" lon="1.2067">
        <ele>258</ele>
        <time>2017-06-06T15:08:54Z</time>
      </trkpt>
      <trkpt lat="44.5798" lon="1.20662">
        <ele>259</ele>
        <time>2017-06-06T15:10:54Z</time>
      </trkpt>
      <trkpt lat="44.57996" lon="1.20649">
        <ele>261</ele>
        <time>2017-06-06T15:12:54Z</time>
      </trkpt>
      <trkpt lat="44.58004" lon="1.20641">
        <ele>262</ele>
        <time>2017-06-06T15:14:54Z</time>
      </trkpt>
      <trkpt lat="44.58012" lon="1.20632">
        <ele>262</ele>
        <time>2017-06-06T15:16:54Z</time>
      </trkpt>
      <trkpt lat="44.58016" lon="1.2062">
        <ele>262</ele>
        <time>2017-06-06T15:18:54Z</time>
      </trkpt>
      <trkpt lat="44.58026" lon="1.20597">
        <ele>262</ele>
        <time>2017-06-06T15:20:54Z</time>
      </trkpt>
      <trkpt lat="44.58043" lon="1.20565">
        <ele>263</ele>
        <time>2017-06-06T15:22:54Z</time>
      </trkpt>
      <trkpt lat="44.58049" lon="1.20554">
        <ele>264</ele>
        <time>2017-06-06T15:24:54Z</time>
      </trkpt>
      <trkpt lat="44.58056" lon="1.20546">
        <ele>265</ele>
        <time>2017-06-06T15:26:54Z</time>
      </trkpt>
      <trkpt lat="44.58062" lon="1.20536">
        <ele>265</ele>
        <time>2017-06-06T15:28:54Z</time>
      </trkpt>
      <trkpt lat="44.58065" lon="1.20524">
        <ele>265</ele>
        <time>2017-06-06T15:30:54Z</time>
      </trkpt>
      <trkpt lat="44.58069" lon="1.20512">
        <ele>265</ele>
        <time>2017-06-06T15:32:54Z</time>
      </trkpt>
      <trkpt lat="44.58074" lon="1.20499">
        <ele>266</ele>
        <time>2017-06-06T15:34:54Z</time>
      </trkpt>
      <trkpt lat="44.58077" lon="1.20487">
        <ele>265</ele>
        <time>2017-06-06T15:36:54Z</time>
      </trkpt>
      <trkpt lat="44.58078" lon="1.20473">
        <ele>263</ele>
        <time>2017-06-06T15:38:54Z</time>
      </trkpt>
      <trkpt lat="44.58082" lon="1.20448">
        <ele>260</ele>
        <time>2017-06-06T15:40:54Z</time>
      </trkpt>
      <trkpt lat="44.58089" lon="1.20423">
        <ele>257</ele>
        <time>2017-06-06T15:42:54Z</time>
      </trkpt>
      <trkpt lat="44.58091" lon="1.20411">
        <ele>256</ele>
        <time>2017-06-06T15:44:54Z</time>
      </trkpt>
      <trkpt lat="44.58095" lon="1.20399">
        <ele>255</ele>
        <time>2017-06-06T15:46:54Z</time>
      </trkpt>
      <trkpt lat="44.58098" lon="1.20386">
        <ele>253</ele>
        <time>2017-06-06T15:48:54Z</time>
      </trkpt>
      <trkpt lat="44.58099" lon="1.20373">
        <ele>251</ele>
        <time>2017-06-06T15:50:54Z</time>
      </trkpt>
      <trkpt lat="44.58104" lon="1.20361">
        <ele>251</ele>
        <time>2017-06-06T15:52:54Z</time>
      </trkpt>
      <trkpt lat="44.5811" lon="1.20351">
        <ele>250</ele>
        <time>2017-06-06T15:54:54Z</time>
      </trkpt>
      <trkpt lat="44.58116" lon="1.20341">
        <ele>250</ele>
        <time>2017-06-06T15:56:54Z</time>
      </trkpt>
      <trkpt lat="44.5812" lon="1.20329">
        <ele>249</ele>
        <time>2017-06-06T15:58:54Z</time>
      </trkpt>
      <trkpt lat="44.58127" lon="1.2032">
        <ele>250</ele>
        <time>2017-06-06T16:00:54Z</time>
      </trkpt>
      <trkpt lat="44.58134" lon="1.2031">
        <ele>250</ele>
        <time>2017-06-06T16:02:54Z</time>
      </trkpt>
      <trkpt lat="44.58137" lon="1.20296">
        <ele>249</ele>
        <time>2017-06-06T16:04:54Z</time>
      </trkpt>
      <trkpt lat="44.58138" lon="1.20284">
        <ele>248</ele>
        <time>2017-06-06T16:06:54Z</time>
      </trkpt>
      <trkpt lat="44.58147" lon="1.20286">
        <ele>250</ele>
        <time>2017-06-06T16:08:54Z</time>
      </trkpt>
      <trkpt lat="44.58152" lon="1.20296">
        <ele>251</ele>
        <time>2017-06-06T16:10:54Z</time>
      </trkpt>
      <trkpt lat="44.58146" lon="1.20286">
        <ele>249</ele>
        <time>2017-06-06T16:12:54Z</time>
      </trkpt>
      <trkpt lat="44.58137" lon="1.20282">
        <ele>248</ele>
        <time>2017-06-06T16:14:54Z</time>
      </trkpt>
      <trkpt lat="44.58146" lon="1.20284">
        <ele>249</ele>
        <time>2017-06-06T16:16:54Z</time>
      </trkpt>
      <trkpt lat="44.58141" lon="1.20272">
        <ele>248</ele>
        <time>2017-06-06T16:18:54Z</time>
      </trkpt>
      <trkpt lat="44.58135" lon="1.20262">
        <ele>246</ele>
        <time>2017-06-06T16:20:54Z</time>
      </trkpt>
      <trkpt lat="44.58127" lon="1.20254">
        <ele>245</ele>
        <time>2017-06-06T16:22:54Z</time>
      </trkpt>
      <trkpt lat="44.58121" lon="1.20243">
        <ele>246</ele>
        <time>2017-06-06T16:24:54Z</time>
      </trkpt>
      <trkpt lat="44.5812" lon="1.20231">
        <ele>247</ele>
        <time>2017-06-06T16:26:54Z</time>
      </trkpt>
      <trkpt lat="44.58125" lon="1.2022">
        <ele>248</ele>
        <time>2017-06-06T16:28:54Z</time>
      </trkpt>
      <trkpt lat="44.58134" lon="1.20213">
        <ele>249</ele>
        <time>2017-06-06T16:30:54Z</time>
      </trkpt>
      <trkpt lat="44.58142" lon="1.20208">
        <ele>250</ele>
        <time>2017-06-06T16:32:54Z</time>
      </trkpt>
      <trkpt lat="44.58148" lon="1.20198">
        <ele>251</ele>
        <time>2017-06-06T16:34:54Z</time>
      </trkpt>
      <trkpt lat="44.58156" lon="1.2019">
        <ele>252</ele>
        <time>2017-06-06T16:36:54Z</time>
      </trkpt>
      <trkpt lat="44.58169" lon="1.20173">
        <ele>253</ele>
        <time>2017-06-06T16:38:54Z</time>
      </trkpt>
      <trkpt lat="44.58176" lon="1.20164">
        <ele>254</ele>
        <time>2017-06-06T16:40:54Z</time>
      </trkpt>
      <trkpt lat="44.58181" lon="1.20153">
        <ele>256</ele>
        <time>2017-06-06T16:42:54Z</time>
      </trkpt>
      <trkpt lat="44.58187" lon="1.20142">
        <ele>257</ele>
        <time>2017-06-06T16:44:54Z</time>
      </trkpt>
      <trkpt lat="44.58191" lon="1.2013">
        <ele>258</ele>
        <time>2017-06-06T16:46:54Z</time>
      </trkpt>
      <trkpt lat="44.58196" lon="1.20119">
        <ele>260</ele>
        <time>2017-06-06T16:48:54Z</time>
      </trkpt>
      <trkpt lat="44.58204" lon="1.20096">
        <ele>262</ele>
        <time>2017-06-06T16:50:54Z</time>
      </trkpt>
      <trkpt lat="44.58208" lon="1.20085">
        <ele>263</ele>
        <time>2017-06-06T16:52:54Z</time>
      </trkpt>
      <trkpt lat="44.58214" lon="1.20072">
        <ele>264</ele>
        <time>2017-06-06T16:54:54Z</time>
      </trkpt>
      <trkpt lat="44.58219" lon="1.2006">
        <ele>264</ele>
        <time>2017-06-06T16:56:54Z</time>
      </trkpt>
      <trkpt lat="44.58224" lon="1.20048">
        <ele>265</ele>
        <time>2017-06-06T16:58:54Z</time>
      </trkpt>
      <trkpt lat="44.58231" lon="1.20038">
        <ele>265</ele>
        <time>2017-06-06T17:00:54Z</time>
      </trkpt>
      <trkpt lat="44.58239" lon="1.2003">
        <ele>265</ele>
        <time>2017-06-06T17:02:54Z</time>
      </trkpt>
      <trkpt lat="44.58248" lon="1.20027">
        <ele>265</ele>
        <time>2017-06-06T17:04:54Z</time>
      </trkpt>
      <trkpt lat="44.58256" lon="1.20023">
        <ele>266</ele>
        <time>2017-06-06T17:06:54Z</time>
      </trkpt>
      <trkpt lat="44.58266" lon="1.2002">
        <ele>267</ele>
        <time>2017-06-06T17:08:54Z</time>
      </trkpt>
      <trkpt lat="44.58275" lon="1.2002">
        <ele>268</ele>
        <time>2017-06-06T17:10:54Z</time>
      </trkpt>
      <trkpt lat="44.58284" lon="1.20016">
        <ele>269</ele>
        <time>2017-06-06T17:12:54Z</time>
      </trkpt>
      <trkpt lat="44.58293" lon="1.20011">
        <ele>270</ele>
        <time>2017-06-06T17:14:54Z</time>
      </trkpt>
      <trkpt lat="44.58301" lon="1.20006">
        <ele>271</ele>
        <time>2017-06-06T17:16:54Z</time>
      </trkpt>
      <trkpt lat="44.58311" lon="1.20003">
        <ele>272</ele>
        <time>2017-06-06T17:18:54Z</time>
      </trkpt>
      <trkpt lat="44.5832" lon="1.2">
        <ele>273</ele>
        <time>2017-06-06T17:20:54Z</time>
      </trkpt>
      <trkpt lat="44.58329" lon="1.19997">
        <ele>274</ele>
        <time>2017-06-06T17:22:54Z</time>
      </trkpt>
      <trkpt lat="44.58338" lon="1.19993">
        <ele>275</ele>
        <time>2017-06-06T17:24:54Z</time>
      </trkpt>
      <trkpt lat="44.58346" lon="1.19987">
        <ele>275</ele>
        <time>2017-06-06T17:26:54Z</time>
      </trkpt>
      <trkpt lat="44.58342" lon="1.19976">
        <ele>275</ele>
        <time>2017-06-06T17:28:54Z</time>
      </trkpt>
      <trkpt lat="44.58334" lon="1.19968">
        <ele>275</ele>
        <time>2017-06-06T17:30:54Z</time>
      </trkpt>
      <trkpt lat="44.58325" lon="1.19962">
        <ele>274</ele>
        <time>2017-06-06T17:32:54Z</time>
      </trkpt>
      <trkpt lat="44.58318" lon="1.19955">
        <ele>274</ele>
        <time>2017-06-06T17:34:54Z</time>
      </trkpt>
      <trkpt lat="44.58302" lon="1.1994">
        <ele>273</ele>
        <time>2017-06-06T17:36:54Z</time>
      </trkpt>
      <trkpt lat="44.58294" lon="1.19931">
        <ele>273</ele>
        <time>2017-06-06T17:38:54Z</time>
      </trkpt>
      <trkpt lat="44.58288" lon="1.19921">
        <ele>273</ele>
        <time>2017-06-06T17:40:54Z</time>
      </trkpt>
      <trkpt lat="44.58283" lon="1.19909">
        <ele>273</ele>
        <time>2017-06-06T17:42:54Z</time>
      </trkpt>
      <trkpt lat="44.58276" lon="1.19898">
        <ele>273</ele>
        <time>2017-06-06T17:44:54Z</time>
      </trkpt>
      <trkpt lat="44.58269" lon="1.19888">
        <ele>272</ele>
        <time>2017-06-06T17:46:54Z</time>
      </trkpt>
      <trkpt lat="44.58262" lon="1.19879">
        <ele>272</ele>
        <time>2017-06-06T17:48:54Z</time>
      </trkpt>
      <trkpt lat="44.58254" lon="1.19871">
        <ele>272</ele>
        <time>2017-06-06T17:50:54Z</time>
      </trkpt>
      <trkpt lat="44.58245" lon="1.19867">
        <ele>272</ele>
        <time>2017-06-06T17:52:54Z</time>
      </trkpt>
      <trkpt lat="44.58236" lon="1.19867">
        <ele>271</ele>
        <time>2017-06-06T17:54:54Z</time>
      </trkpt>
      <trkpt lat="44.58226" lon="1.19864">
        <ele>271</ele>
        <time>2017-06-06T17:56:54Z</time>
      </trkpt>
      <trkpt lat="44.58217" lon="1.19863">
        <ele>270</ele>
        <time>2017-06-06T17:58:54Z</time>
      </trkpt>
      <trkpt lat="44.58208" lon="1.19858">
        <ele>270</ele>
        <time>2017-06-06T18:00:54Z</time>
      </trkpt>
      <trkpt lat="44.58198" lon="1.19854">
        <ele>269</ele>
        <time>2017-06-06T18:02:54Z</time>
      </trkpt>
      <trkpt lat="44.58189" lon="1.19852">
        <ele>269</ele>
        <time>2017-06-06T18:04:54Z</time>
      </trkpt>
      <trkpt lat="44.58171" lon="1.19845">
        <ele>267</ele>
        <time>2017-06-06T18:06:54Z</time>
      </trkpt>
      <trkpt lat="44.58161" lon="1.19842">
        <ele>266</ele>
        <time>2017-06-06T18:08:54Z</time>
      </trkpt>
      <trkpt lat="44.58153" lon="1.19839">
        <ele>264</ele>
        <time>2017-06-06T18:10:54Z</time>
      </trkpt>
      <trkpt lat="44.58143" lon="1.19838">
        <ele>262</ele>
        <time>2017-06-06T18:12:54Z</time>
      </trkpt>
      <trkpt lat="44.58133" lon="1.1984">
        <ele>260</ele>
        <time>2017-06-06T18:14:54Z</time>
      </trkpt>
      <trkpt lat="44.58115" lon="1.19846">
        <ele>257</ele>
        <time>2017-06-06T18:16:54Z</time>
      </trkpt>
      <trkpt lat="44.58106" lon="1.19852">
        <ele>256</ele>
        <time>2017-06-06T18:18:54Z</time>
      </trkpt>
      <trkpt lat="44.58098" lon="1.19858">
        <ele>255</ele>
        <time>2017-06-06T18:20:54Z</time>
      </trkpt>
      <trkpt lat="44.58089" lon="1.19864">
        <ele>254</ele>
        <time>2017-06-06T18:22:54Z</time>
      </trkpt>
      <trkpt lat="44.58073" lon="1.19879">
        <ele>253</ele>
        <time>2017-06-06T18:24:54Z</time>
      </trkpt>
      <trkpt lat="44.58065" lon="1.19887">
        <ele>252</ele>
        <time>2017-06-06T18:26:54Z</time>
      </trkpt>
      <trkpt lat="44.58057" lon="1.19896">
        <ele>252</ele>
        <time>2017-06-06T18:28:54Z</time>
      </trkpt>
      <trkpt lat="44.5805" lon="1.19903">
        <ele>251</ele>
        <time>2017-06-06T18:30:54Z</time>
      </trkpt>
      <trkpt lat="44.58034" lon="1.19921">
        <ele>251</ele>
        <time>2017-06-06T18:32:54Z</time>
      </trkpt>
      <trkpt lat="44.58024" lon="1.19924">
        <ele>249</ele>
        <time>2017-06-06T18:34:54Z</time>
      </trkpt>
      <trkpt lat="44.58016" lon="1.19929">
        <ele>248</ele>
        <time>2017-06-06T18:36:54Z</time>
      </trkpt>
      <trkpt lat="44.58009" lon="1.19938">
        <ele>249</ele>
        <time>2017-06-06T18:38:54Z</time>
      </trkpt>
      <trkpt lat="44.57999" lon="1.19939">
        <ele>247</ele>
        <time>2017-06-06T18:40:54Z</time>
      </trkpt>
      <trkpt lat="44.57989" lon="1.19942">
        <ele>247</ele>
        <time>2017-06-06T18:42:54Z</time>
      </trkpt>
      <trkpt lat="44.5798" lon="1.19944">
        <ele>246</ele>
        <time>2017-06-06T18:44:54Z</time>
      </trkpt>
      <trkpt lat="44.5797" lon="1.19942">
        <ele>244</ele>
        <time>2017-06-06T18:46:54Z</time>
      </trkpt>
      <trkpt lat="44.57961" lon="1.19939">
        <ele>242</ele>
        <time>2017-06-06T18:48:54Z</time>
      </trkpt>
      <trkpt lat="44.57952" lon="1.19939">
        <ele>241</ele>
        <time>2017-06-06T18:50:54Z</time>
      </trkpt>
      <trkpt lat="44.57942" lon="1.19938">
        <ele>239</ele>
        <time>2017-06-06T18:52:54Z</time>
      </trkpt>
      <trkpt lat="44.57936" lon="1.19929">
        <ele>236</ele>
        <time>2017-06-06T18:54:54Z</time>
      </trkpt>
      <trkpt lat="44.57928" lon="1.19921">
        <ele>232</ele>
        <time>2017-06-06T18:56:54Z</time>
      </trkpt>
      <trkpt lat="44.57918" lon="1.19917">
        <ele>229</ele>
        <time>2017-06-06T18:58:54Z</time>
      </trkpt>
      <trkpt lat="44.57909" lon="1.19914">
        <ele>228</ele>
        <time>2017-06-06T19:00:54Z</time>
      </trkpt>
      <trkpt lat="44.57899" lon="1.19915">
        <ele>228</ele>
        <time>2017-06-06T19:02:54Z</time>
      </trkpt>
      <trkpt lat="44.5789" lon="1.19912">
        <ele>227</ele>
        <time>2017-06-06T19:04:54Z</time>
      </trkpt>
      <trkpt lat="44.57882" lon="1.19904">
        <ele>225</ele>
        <time>2017-06-06T19:06:54Z</time>
      </trkpt>
      <trkpt lat="44.57874" lon="1.19897">
        <ele>224</ele>
        <time>2017-06-06T19:08:54Z</time>
      </trkpt>
      <trkpt lat="44.57863" lon="1.19896">
        <ele>223</ele>
        <time>2017-06-06T19:10:54Z</time>
      </trkpt>
      <trkpt lat="44.57854" lon="1.19891">
        <ele>222</ele>
        <time>2017-06-06T19:12:54Z</time>
      </trkpt>
      <trkpt lat="44.57845" lon="1.19885">
        <ele>221</ele>
        <time>2017-06-06T19:14:54Z</time>
      </trkpt>
      <trkpt lat="44.57833" lon="1.19864">
        <ele>217</ele>
        <time>2017-06-06T19:16:54Z</time>
      </trkpt>
      <trkpt lat="44.57823" lon="1.19841">
        <ele>214</ele>
        <time>2017-06-06T19:18:54Z</time>
      </trkpt>
      <trkpt lat="44.57817" lon="1.19831">
        <ele>214</ele>
        <time>2017-06-06T19:20:54Z</time>
      </trkpt>
      <trkpt lat="44.57811" lon="1.1982">
        <ele>215</ele>
        <time>2017-06-06T19:22:54Z</time>
      </trkpt>
      <trkpt lat="44.57806" lon="1.19809">
        <ele>215</ele>
        <time>2017-06-06T19:24:54Z</time>
      </trkpt>
      <trkpt lat="44.578" lon="1.198">
        <ele>216</ele>
        <time>2017-06-06T19:26:54Z</time>
      </trkpt>
      <trkpt lat="44.57795" lon="1.19789">
        <ele>216</ele>
        <time>2017-06-06T19:28:54Z</time>
      </trkpt>
      <trkpt lat="44.57789" lon="1.19779">
        <ele>217</ele>
        <time>2017-06-06T19:30:54Z</time>
      </trkpt>
      <trkpt lat="44.57783" lon="1.19767">
        <ele>217</ele>
        <time>2017-06-06T19:32:54Z</time>
      </trkpt>
      <trkpt lat="44.57779" lon="1.19755">
        <ele>218</ele>
        <time>2017-06-06T19:34:54Z</time>
      </trkpt>
      <trkpt lat="44.57775" lon="1.19744">
        <ele>218</ele>
        <time>2017-06-06T19:36:54Z</time>
      </trkpt>
      <trkpt lat="44.57769" lon="1.19733">
        <ele>218</ele>
        <time>2017-06-06T19:38:54Z</time>
      </trkpt>
      <trkpt lat="44.57765" lon="1.19721">
        <ele>219</ele>
        <time>2017-06-06T19:40:54Z</time>
      </trkpt>
      <trkpt lat="44.5776" lon="1.1971">
        <ele>219</ele>
        <time>2017-06-06T19:42:54Z</time>
      </trkpt>
      <trkpt lat="44.57754" lon="1.19699">
        <ele>219</ele>
        <time>2017-06-06T19:44:54Z</time>
      </trkpt>
      <trkpt lat="44.57742" lon="1.19678">
        <ele>220</ele>
        <time>2017-06-06T19:46:54Z</time>
      </trkpt>
      <trkpt lat="44.57736" lon="1.19668">
        <ele>221</ele>
        <time>2017-06-06T19:48:54Z</time>
      </trkpt>
      <trkpt lat="44.57725" lon="1.19646">
        <ele>223</ele>
        <time>2017-06-06T19:50:54Z</time>
      </trkpt>
      <trkpt lat="44.57719" lon="1.19636">
        <ele>224</ele>
        <time>2017-06-06T19:52:54Z</time>
      </trkpt>
      <trkpt lat="44.57713" lon="1.19625">
        <ele>224</ele>
        <time>2017-06-06T19:54:54Z</time>
      </trkpt>
      <trkpt lat="44.57707" lon="1.19614">
        <ele>225</ele>
        <time>2017-06-06T19:56:54Z</time>
      </trkpt>
      <trkpt lat="44.57703" lon="1.19602">
        <ele>226</ele>
        <time>2017-06-06T19:58:54Z</time>
      </trkpt>
      <trkpt lat="44.57702" lon="1.19589">
        <ele>227</ele>
        <time>2017-06-06T20:00:54Z</time>
      </trkpt>
      <trkpt lat="44.57705" lon="1.19585">
        <ele>227</ele>
        <time>2017-06-06T20:02:54Z</time>
      </trkpt>
    </trkseg>
  </trk>
</gpx>